<?xml version="1.0" encoding="UTF-8" standalone="no" ?>
<gpx xmlns="http://www.topografix.com/GPX/1/1" xmlns:xsi="http://www.w3.org/2001/XMLSchema-instance" xsi:schemaLocation="http://www.topografix.com/GPX/1/1 http://www.topografix.com/GPX/1/1/gpx.xsd" version="1.1" creator="VisuGPX - https://www.visugpx.com">
  <metadata>
    <name>L'adret de l'Ubac</name>
  </metadata>
  <trk>
    <name><![CDATA[L'adret de l'Ubac_1]]></name>
    <extensions>
      <line xmlns="http://www.topografix.com/GPX/gpx_style/0/2">
        <color>0000FF</color>
        <width>4</width>
      </line>
    </extensions>
    <trkseg>
      <trkpt lat="44.41733" lon="6.73317">
        <ele>1216.3</ele>
        <time>2021-08-30T08:32:15Z</time>
      </trkpt>
      <trkpt lat="44.41735" lon="6.73318">
        <ele>1216.3</ele>
        <time>2021-08-30T08:32:19Z</time>
      </trkpt>
      <trkpt lat="44.41736" lon="6.73322">
        <ele>1216.3</ele>
        <time>2021-08-30T08:32:23Z</time>
      </trkpt>
      <trkpt lat="44.41738" lon="6.73334">
        <ele>1216.4</ele>
        <time>2021-08-30T08:32:27Z</time>
      </trkpt>
      <trkpt lat="44.41723" lon="6.73328">
        <ele>1216.9</ele>
        <time>2021-08-30T08:32:31Z</time>
      </trkpt>
      <trkpt lat="44.41718" lon="6.73331">
        <ele>1217.1</ele>
        <time>2021-08-30T08:32:35Z</time>
      </trkpt>
      <trkpt lat="44.41721" lon="6.73334">
        <ele>1217</ele>
        <time>2021-08-30T08:32:39Z</time>
      </trkpt>
      <trkpt lat="44.41722" lon="6.73337">
        <ele>1217</ele>
        <time>2021-08-30T08:32:43Z</time>
      </trkpt>
      <trkpt lat="44.41725" lon="6.73349">
        <ele>1216.9</ele>
        <time>2021-08-30T08:32:47Z</time>
      </trkpt>
      <trkpt lat="44.41728" lon="6.73364">
        <ele>1216.8</ele>
        <time>2021-08-30T08:32:51Z</time>
      </trkpt>
      <trkpt lat="44.41732" lon="6.73379">
        <ele>1216.6</ele>
        <time>2021-08-30T08:32:55Z</time>
      </trkpt>
      <trkpt lat="44.41735" lon="6.73401">
        <ele>1216.5</ele>
        <time>2021-08-30T08:32:59Z</time>
      </trkpt>
      <trkpt lat="44.41736" lon="6.73418">
        <ele>1216.5</ele>
        <time>2021-08-30T08:33:03Z</time>
      </trkpt>
      <trkpt lat="44.41739" lon="6.73434">
        <ele>1216.2</ele>
        <time>2021-08-30T08:33:07Z</time>
      </trkpt>
      <trkpt lat="44.41744" lon="6.73448">
        <ele>1215.8</ele>
        <time>2021-08-30T08:33:11Z</time>
      </trkpt>
      <trkpt lat="44.41749" lon="6.73461">
        <ele>1215.5</ele>
        <time>2021-08-30T08:33:15Z</time>
      </trkpt>
      <trkpt lat="44.41754" lon="6.73476">
        <ele>1215.2</ele>
        <time>2021-08-30T08:33:19Z</time>
      </trkpt>
      <trkpt lat="44.41758" lon="6.735">
        <ele>1214.8</ele>
        <time>2021-08-30T08:33:23Z</time>
      </trkpt>
      <trkpt lat="44.4176" lon="6.73525">
        <ele>1215.4</ele>
        <time>2021-08-30T08:33:27Z</time>
      </trkpt>
      <trkpt lat="44.41764" lon="6.73547">
        <ele>1215.9</ele>
        <time>2021-08-30T08:33:31Z</time>
      </trkpt>
      <trkpt lat="44.41769" lon="6.73568">
        <ele>1216.4</ele>
        <time>2021-08-30T08:33:35Z</time>
      </trkpt>
      <trkpt lat="44.41774" lon="6.73588">
        <ele>1216.8</ele>
        <time>2021-08-30T08:33:39Z</time>
      </trkpt>
      <trkpt lat="44.4178" lon="6.73608">
        <ele>1217.3</ele>
        <time>2021-08-30T08:33:43Z</time>
      </trkpt>
      <trkpt lat="44.41787" lon="6.73625">
        <ele>1217.8</ele>
        <time>2021-08-30T08:33:47Z</time>
      </trkpt>
      <trkpt lat="44.41795" lon="6.7364">
        <ele>1218.2</ele>
        <time>2021-08-30T08:33:51Z</time>
      </trkpt>
      <trkpt lat="44.41804" lon="6.73649">
        <ele>1218.4</ele>
        <time>2021-08-30T08:33:55Z</time>
      </trkpt>
      <trkpt lat="44.41813" lon="6.73648">
        <ele>1218.4</ele>
        <time>2021-08-30T08:33:59Z</time>
      </trkpt>
      <trkpt lat="44.41823" lon="6.73638">
        <ele>1218</ele>
        <time>2021-08-30T08:34:03Z</time>
      </trkpt>
      <trkpt lat="44.41827" lon="6.73638">
        <ele>1218</ele>
        <time>2021-08-30T08:34:07Z</time>
      </trkpt>
      <trkpt lat="44.41838" lon="6.73647">
        <ele>1218.3</ele>
        <time>2021-08-30T08:34:11Z</time>
      </trkpt>
      <trkpt lat="44.41847" lon="6.73662">
        <ele>1218.7</ele>
        <time>2021-08-30T08:34:15Z</time>
      </trkpt>
      <trkpt lat="44.4185" lon="6.73679">
        <ele>1218.9</ele>
        <time>2021-08-30T08:34:19Z</time>
      </trkpt>
      <trkpt lat="44.41848" lon="6.73694">
        <ele>1219.2</ele>
        <time>2021-08-30T08:34:23Z</time>
      </trkpt>
      <trkpt lat="44.41853" lon="6.73704">
        <ele>1219.2</ele>
        <time>2021-08-30T08:34:27Z</time>
      </trkpt>
      <trkpt lat="44.4185" lon="6.73702">
        <ele>1219.2</ele>
        <time>2021-08-30T08:34:31Z</time>
      </trkpt>
      <trkpt lat="44.41842" lon="6.73692">
        <ele>1219.2</ele>
        <time>2021-08-30T08:34:35Z</time>
      </trkpt>
      <trkpt lat="44.41834" lon="6.73682">
        <ele>1219.2</ele>
        <time>2021-08-30T08:34:39Z</time>
      </trkpt>
      <trkpt lat="44.41827" lon="6.73673">
        <ele>1219.1</ele>
        <time>2021-08-30T08:34:43Z</time>
      </trkpt>
      <trkpt lat="44.41826" lon="6.73677">
        <ele>1219.1</ele>
        <time>2021-08-30T08:34:47Z</time>
      </trkpt>
      <trkpt lat="44.41831" lon="6.73684">
        <ele>1219.2</ele>
        <time>2021-08-30T08:34:51Z</time>
      </trkpt>
      <trkpt lat="44.41837" lon="6.73695">
        <ele>1219.3</ele>
        <time>2021-08-30T08:34:55Z</time>
      </trkpt>
      <trkpt lat="44.41843" lon="6.73706">
        <ele>1219.4</ele>
        <time>2021-08-30T08:34:59Z</time>
      </trkpt>
      <trkpt lat="44.41852" lon="6.73712">
        <ele>1219.3</ele>
        <time>2021-08-30T08:35:03Z</time>
      </trkpt>
      <trkpt lat="44.41862" lon="6.73723">
        <ele>1219.3</ele>
        <time>2021-08-30T08:35:07Z</time>
      </trkpt>
      <trkpt lat="44.41873" lon="6.73734">
        <ele>1219.3</ele>
        <time>2021-08-30T08:35:11Z</time>
      </trkpt>
      <trkpt lat="44.41884" lon="6.73742">
        <ele>1219.3</ele>
        <time>2021-08-30T08:35:15Z</time>
      </trkpt>
      <trkpt lat="44.41893" lon="6.73754">
        <ele>1219.3</ele>
        <time>2021-08-30T08:35:19Z</time>
      </trkpt>
      <trkpt lat="44.41905" lon="6.73764">
        <ele>1219.1</ele>
        <time>2021-08-30T08:35:23Z</time>
      </trkpt>
      <trkpt lat="44.41916" lon="6.73777">
        <ele>1219</ele>
        <time>2021-08-30T08:35:27Z</time>
      </trkpt>
      <trkpt lat="44.41929" lon="6.73786">
        <ele>1219</ele>
        <time>2021-08-30T08:35:31Z</time>
      </trkpt>
      <trkpt lat="44.41944" lon="6.73792">
        <ele>1219</ele>
        <time>2021-08-30T08:35:35Z</time>
      </trkpt>
      <trkpt lat="44.41958" lon="6.738">
        <ele>1219</ele>
        <time>2021-08-30T08:35:39Z</time>
      </trkpt>
      <trkpt lat="44.41972" lon="6.73807">
        <ele>1219</ele>
        <time>2021-08-30T08:35:43Z</time>
      </trkpt>
      <trkpt lat="44.41988" lon="6.73811">
        <ele>1219</ele>
        <time>2021-08-30T08:35:47Z</time>
      </trkpt>
      <trkpt lat="44.42002" lon="6.73818">
        <ele>1219.1</ele>
        <time>2021-08-30T08:35:51Z</time>
      </trkpt>
      <trkpt lat="44.42017" lon="6.73821">
        <ele>1219.6</ele>
        <time>2021-08-30T08:35:55Z</time>
      </trkpt>
      <trkpt lat="44.42021" lon="6.7383">
        <ele>1219.7</ele>
        <time>2021-08-30T08:35:59Z</time>
      </trkpt>
      <trkpt lat="44.42019" lon="6.73848">
        <ele>1220.1</ele>
        <time>2021-08-30T08:36:03Z</time>
      </trkpt>
      <trkpt lat="44.42016" lon="6.73869">
        <ele>1220.7</ele>
        <time>2021-08-30T08:36:07Z</time>
      </trkpt>
      <trkpt lat="44.42012" lon="6.73891">
        <ele>1221.3</ele>
        <time>2021-08-30T08:36:11Z</time>
      </trkpt>
      <trkpt lat="44.42007" lon="6.73916">
        <ele>1222.1</ele>
        <time>2021-08-30T08:36:15Z</time>
      </trkpt>
      <trkpt lat="44.42" lon="6.73938">
        <ele>1222.5</ele>
        <time>2021-08-30T08:36:19Z</time>
      </trkpt>
      <trkpt lat="44.41989" lon="6.73956">
        <ele>1222.7</ele>
        <time>2021-08-30T08:36:23Z</time>
      </trkpt>
      <trkpt lat="44.41977" lon="6.73972">
        <ele>1222.8</ele>
        <time>2021-08-30T08:36:27Z</time>
      </trkpt>
      <trkpt lat="44.41965" lon="6.73987">
        <ele>1222.8</ele>
        <time>2021-08-30T08:36:31Z</time>
      </trkpt>
      <trkpt lat="44.41962" lon="6.74007">
        <ele>1223.1</ele>
        <time>2021-08-30T08:36:35Z</time>
      </trkpt>
      <trkpt lat="44.41961" lon="6.74029">
        <ele>1223</ele>
        <time>2021-08-30T08:36:39Z</time>
      </trkpt>
      <trkpt lat="44.41959" lon="6.74051">
        <ele>1223</ele>
        <time>2021-08-30T08:36:43Z</time>
      </trkpt>
      <trkpt lat="44.41957" lon="6.74072">
        <ele>1223</ele>
        <time>2021-08-30T08:36:47Z</time>
      </trkpt>
      <trkpt lat="44.41953" lon="6.74091">
        <ele>1224.2</ele>
        <time>2021-08-30T08:36:51Z</time>
      </trkpt>
      <trkpt lat="44.41955" lon="6.74109">
        <ele>1226.6</ele>
        <time>2021-08-30T08:36:55Z</time>
      </trkpt>
      <trkpt lat="44.41957" lon="6.74123">
        <ele>1228.5</ele>
        <time>2021-08-30T08:36:59Z</time>
      </trkpt>
      <trkpt lat="44.4196" lon="6.74135">
        <ele>1230.1</ele>
        <time>2021-08-30T08:37:03Z</time>
      </trkpt>
      <trkpt lat="44.41964" lon="6.74144">
        <ele>1231.4</ele>
        <time>2021-08-30T08:37:07Z</time>
      </trkpt>
      <trkpt lat="44.41966" lon="6.74146">
        <ele>1231.7</ele>
        <time>2021-08-30T08:37:11Z</time>
      </trkpt>
      <trkpt lat="44.41967" lon="6.74151">
        <ele>1232.4</ele>
        <time>2021-08-30T08:37:15Z</time>
      </trkpt>
      <trkpt lat="44.41968" lon="6.74156">
        <ele>1233.1</ele>
        <time>2021-08-30T08:37:23Z</time>
      </trkpt>
      <trkpt lat="44.41969" lon="6.7416">
        <ele>1233.7</ele>
        <time>2021-08-30T08:37:27Z</time>
      </trkpt>
      <trkpt lat="44.4197" lon="6.74163">
        <ele>1234.1</ele>
        <time>2021-08-30T08:37:31Z</time>
      </trkpt>
      <trkpt lat="44.41971" lon="6.74166">
        <ele>1234.6</ele>
        <time>2021-08-30T08:37:35Z</time>
      </trkpt>
      <trkpt lat="44.41972" lon="6.74168">
        <ele>1234.9</ele>
        <time>2021-08-30T08:37:39Z</time>
      </trkpt>
      <trkpt lat="44.41975" lon="6.7417">
        <ele>1235.4</ele>
        <time>2021-08-30T08:37:43Z</time>
      </trkpt>
      <trkpt lat="44.41976" lon="6.74172">
        <ele>1235.8</ele>
        <time>2021-08-30T08:37:47Z</time>
      </trkpt>
      <trkpt lat="44.41981" lon="6.7417">
        <ele>1235.5</ele>
        <time>2021-08-30T08:37:51Z</time>
      </trkpt>
      <trkpt lat="44.41986" lon="6.74168">
        <ele>1235.1</ele>
        <time>2021-08-30T08:37:55Z</time>
      </trkpt>
      <trkpt lat="44.41991" lon="6.74166">
        <ele>1234.8</ele>
        <time>2021-08-30T08:37:59Z</time>
      </trkpt>
      <trkpt lat="44.41995" lon="6.74169">
        <ele>1235.4</ele>
        <time>2021-08-30T08:38:03Z</time>
      </trkpt>
      <trkpt lat="44.42" lon="6.74173">
        <ele>1236.4</ele>
        <time>2021-08-30T08:38:07Z</time>
      </trkpt>
      <trkpt lat="44.42006" lon="6.74177">
        <ele>1236.9</ele>
        <time>2021-08-30T08:38:11Z</time>
      </trkpt>
      <trkpt lat="44.42011" lon="6.74182">
        <ele>1237.7</ele>
        <time>2021-08-30T08:38:15Z</time>
      </trkpt>
      <trkpt lat="44.42016" lon="6.74185">
        <ele>1238.1</ele>
        <time>2021-08-30T08:38:19Z</time>
      </trkpt>
      <trkpt lat="44.42022" lon="6.74186">
        <ele>1238</ele>
        <time>2021-08-30T08:38:23Z</time>
      </trkpt>
      <trkpt lat="44.42028" lon="6.74186">
        <ele>1237.6</ele>
        <time>2021-08-30T08:38:27Z</time>
      </trkpt>
      <trkpt lat="44.42035" lon="6.74188">
        <ele>1237.7</ele>
        <time>2021-08-30T08:38:31Z</time>
      </trkpt>
      <trkpt lat="44.42039" lon="6.74193">
        <ele>1238.8</ele>
        <time>2021-08-30T08:38:35Z</time>
      </trkpt>
      <trkpt lat="44.42036" lon="6.74201">
        <ele>1240.9</ele>
        <time>2021-08-30T08:39:27Z</time>
      </trkpt>
      <trkpt lat="44.42032" lon="6.74201">
        <ele>1241.1</ele>
        <time>2021-08-30T08:39:31Z</time>
      </trkpt>
      <trkpt lat="44.42024" lon="6.74201">
        <ele>1241.4</ele>
        <time>2021-08-30T08:39:35Z</time>
      </trkpt>
      <trkpt lat="44.42017" lon="6.74205">
        <ele>1242.6</ele>
        <time>2021-08-30T08:39:39Z</time>
      </trkpt>
      <trkpt lat="44.42009" lon="6.7421">
        <ele>1244</ele>
        <time>2021-08-30T08:39:43Z</time>
      </trkpt>
      <trkpt lat="44.42008" lon="6.74221">
        <ele>1246.5</ele>
        <time>2021-08-30T08:39:47Z</time>
      </trkpt>
      <trkpt lat="44.42015" lon="6.74227">
        <ele>1247.7</ele>
        <time>2021-08-30T08:39:51Z</time>
      </trkpt>
      <trkpt lat="44.42023" lon="6.74228">
        <ele>1247.8</ele>
        <time>2021-08-30T08:39:55Z</time>
      </trkpt>
      <trkpt lat="44.4203" lon="6.74232">
        <ele>1248.6</ele>
        <time>2021-08-30T08:39:59Z</time>
      </trkpt>
      <trkpt lat="44.42037" lon="6.74237">
        <ele>1249.8</ele>
        <time>2021-08-30T08:40:03Z</time>
      </trkpt>
      <trkpt lat="44.42044" lon="6.74241">
        <ele>1250.7</ele>
        <time>2021-08-30T08:40:07Z</time>
      </trkpt>
      <trkpt lat="44.42052" lon="6.74247">
        <ele>1252.2</ele>
        <time>2021-08-30T08:40:11Z</time>
      </trkpt>
      <trkpt lat="44.42059" lon="6.74252">
        <ele>1253.5</ele>
        <time>2021-08-30T08:40:15Z</time>
      </trkpt>
      <trkpt lat="44.42065" lon="6.74257">
        <ele>1254.7</ele>
        <time>2021-08-30T08:40:19Z</time>
      </trkpt>
      <trkpt lat="44.42072" lon="6.74264">
        <ele>1256.4</ele>
        <time>2021-08-30T08:40:23Z</time>
      </trkpt>
      <trkpt lat="44.42078" lon="6.7427">
        <ele>1258</ele>
        <time>2021-08-30T08:40:27Z</time>
      </trkpt>
      <trkpt lat="44.42086" lon="6.74273">
        <ele>1258.9</ele>
        <time>2021-08-30T08:40:31Z</time>
      </trkpt>
      <trkpt lat="44.42093" lon="6.74275">
        <ele>1259.6</ele>
        <time>2021-08-30T08:40:35Z</time>
      </trkpt>
      <trkpt lat="44.42101" lon="6.74275">
        <ele>1259.9</ele>
        <time>2021-08-30T08:40:39Z</time>
      </trkpt>
      <trkpt lat="44.42106" lon="6.7428">
        <ele>1261.4</ele>
        <time>2021-08-30T08:40:43Z</time>
      </trkpt>
      <trkpt lat="44.42103" lon="6.74288">
        <ele>1263.5</ele>
        <time>2021-08-30T08:40:47Z</time>
      </trkpt>
      <trkpt lat="44.42096" lon="6.74291">
        <ele>1264</ele>
        <time>2021-08-30T08:40:51Z</time>
      </trkpt>
      <trkpt lat="44.42088" lon="6.7429">
        <ele>1263.3</ele>
        <time>2021-08-30T08:40:55Z</time>
      </trkpt>
      <trkpt lat="44.4208" lon="6.7429">
        <ele>1263</ele>
        <time>2021-08-30T08:40:59Z</time>
      </trkpt>
      <trkpt lat="44.42072" lon="6.7429">
        <ele>1262.8</ele>
        <time>2021-08-30T08:41:03Z</time>
      </trkpt>
      <trkpt lat="44.42063" lon="6.7429">
        <ele>1262.5</ele>
        <time>2021-08-30T08:41:07Z</time>
      </trkpt>
      <trkpt lat="44.42055" lon="6.74291">
        <ele>1262.5</ele>
        <time>2021-08-30T08:41:11Z</time>
      </trkpt>
      <trkpt lat="44.42047" lon="6.74292">
        <ele>1262.5</ele>
        <time>2021-08-30T08:41:15Z</time>
      </trkpt>
      <trkpt lat="44.42038" lon="6.74294">
        <ele>1262.7</ele>
        <time>2021-08-30T08:41:19Z</time>
      </trkpt>
      <trkpt lat="44.4203" lon="6.74296">
        <ele>1262.8</ele>
        <time>2021-08-30T08:41:23Z</time>
      </trkpt>
      <trkpt lat="44.42022" lon="6.74299">
        <ele>1263.2</ele>
        <time>2021-08-30T08:41:27Z</time>
      </trkpt>
      <trkpt lat="44.42014" lon="6.74299">
        <ele>1262.9</ele>
        <time>2021-08-30T08:41:31Z</time>
      </trkpt>
      <trkpt lat="44.42007" lon="6.74296">
        <ele>1262.1</ele>
        <time>2021-08-30T08:41:35Z</time>
      </trkpt>
      <trkpt lat="44.41999" lon="6.74296">
        <ele>1261.9</ele>
        <time>2021-08-30T08:41:39Z</time>
      </trkpt>
      <trkpt lat="44.41995" lon="6.74306">
        <ele>1264</ele>
        <time>2021-08-30T08:41:43Z</time>
      </trkpt>
      <trkpt lat="44.42" lon="6.74314">
        <ele>1265.3</ele>
        <time>2021-08-30T08:41:47Z</time>
      </trkpt>
      <trkpt lat="44.42006" lon="6.74324">
        <ele>1267.5</ele>
        <time>2021-08-30T08:41:51Z</time>
      </trkpt>
      <trkpt lat="44.42011" lon="6.74334">
        <ele>1269.9</ele>
        <time>2021-08-30T08:41:55Z</time>
      </trkpt>
      <trkpt lat="44.42008" lon="6.74344">
        <ele>1273.1</ele>
        <time>2021-08-30T08:41:59Z</time>
      </trkpt>
      <trkpt lat="44.42001" lon="6.74349">
        <ele>1274.3</ele>
        <time>2021-08-30T08:42:03Z</time>
      </trkpt>
      <trkpt lat="44.41994" lon="6.74351">
        <ele>1275.1</ele>
        <time>2021-08-30T08:42:07Z</time>
      </trkpt>
      <trkpt lat="44.41986" lon="6.74351">
        <ele>1275.4</ele>
        <time>2021-08-30T08:42:11Z</time>
      </trkpt>
      <trkpt lat="44.41978" lon="6.74351">
        <ele>1275.7</ele>
        <time>2021-08-30T08:42:15Z</time>
      </trkpt>
      <trkpt lat="44.4197" lon="6.7435">
        <ele>1275.7</ele>
        <time>2021-08-30T08:42:19Z</time>
      </trkpt>
      <trkpt lat="44.41962" lon="6.74348">
        <ele>1275.5</ele>
        <time>2021-08-30T08:42:23Z</time>
      </trkpt>
      <trkpt lat="44.41954" lon="6.74346">
        <ele>1275.3</ele>
        <time>2021-08-30T08:42:27Z</time>
      </trkpt>
      <trkpt lat="44.41946" lon="6.74344">
        <ele>1275.2</ele>
        <time>2021-08-30T08:42:31Z</time>
      </trkpt>
      <trkpt lat="44.41939" lon="6.74343">
        <ele>1275.4</ele>
        <time>2021-08-30T08:42:35Z</time>
      </trkpt>
      <trkpt lat="44.41932" lon="6.7434">
        <ele>1275.2</ele>
        <time>2021-08-30T08:42:39Z</time>
      </trkpt>
      <trkpt lat="44.41923" lon="6.74338">
        <ele>1275.3</ele>
        <time>2021-08-30T08:42:43Z</time>
      </trkpt>
      <trkpt lat="44.41915" lon="6.74336">
        <ele>1275.3</ele>
        <time>2021-08-30T08:42:47Z</time>
      </trkpt>
      <trkpt lat="44.41907" lon="6.74336">
        <ele>1274.8</ele>
        <time>2021-08-30T08:42:51Z</time>
      </trkpt>
      <trkpt lat="44.41899" lon="6.74338">
        <ele>1274.7</ele>
        <time>2021-08-30T08:42:55Z</time>
      </trkpt>
      <trkpt lat="44.41891" lon="6.74341">
        <ele>1274.7</ele>
        <time>2021-08-30T08:42:59Z</time>
      </trkpt>
      <trkpt lat="44.41883" lon="6.74343">
        <ele>1274.6</ele>
        <time>2021-08-30T08:43:03Z</time>
      </trkpt>
      <trkpt lat="44.41876" lon="6.74346">
        <ele>1274.8</ele>
        <time>2021-08-30T08:43:07Z</time>
      </trkpt>
      <trkpt lat="44.41871" lon="6.74354">
        <ele>1275.9</ele>
        <time>2021-08-30T08:43:11Z</time>
      </trkpt>
      <trkpt lat="44.41873" lon="6.74364">
        <ele>1277.7</ele>
        <time>2021-08-30T08:43:15Z</time>
      </trkpt>
      <trkpt lat="44.4188" lon="6.74367">
        <ele>1278.6</ele>
        <time>2021-08-30T08:43:19Z</time>
      </trkpt>
      <trkpt lat="44.41888" lon="6.74369">
        <ele>1279.3</ele>
        <time>2021-08-30T08:43:23Z</time>
      </trkpt>
      <trkpt lat="44.41897" lon="6.74372">
        <ele>1280.2</ele>
        <time>2021-08-30T08:43:27Z</time>
      </trkpt>
      <trkpt lat="44.41905" lon="6.74375">
        <ele>1281</ele>
        <time>2021-08-30T08:43:31Z</time>
      </trkpt>
      <trkpt lat="44.41915" lon="6.74378">
        <ele>1281.9</ele>
        <time>2021-08-30T08:43:35Z</time>
      </trkpt>
      <trkpt lat="44.41924" lon="6.74382">
        <ele>1282.8</ele>
        <time>2021-08-30T08:43:39Z</time>
      </trkpt>
      <trkpt lat="44.41933" lon="6.7439">
        <ele>1284.7</ele>
        <time>2021-08-30T08:43:43Z</time>
      </trkpt>
      <trkpt lat="44.4194" lon="6.744">
        <ele>1287.1</ele>
        <time>2021-08-30T08:43:47Z</time>
      </trkpt>
      <trkpt lat="44.41947" lon="6.74409">
        <ele>1289.6</ele>
        <time>2021-08-30T08:43:51Z</time>
      </trkpt>
      <trkpt lat="44.41956" lon="6.74413">
        <ele>1291.4</ele>
        <time>2021-08-30T08:43:55Z</time>
      </trkpt>
      <trkpt lat="44.41966" lon="6.74415">
        <ele>1292.9</ele>
        <time>2021-08-30T08:43:59Z</time>
      </trkpt>
      <trkpt lat="44.41975" lon="6.74416">
        <ele>1294.1</ele>
        <time>2021-08-30T08:44:03Z</time>
      </trkpt>
      <trkpt lat="44.41985" lon="6.74417">
        <ele>1295.5</ele>
        <time>2021-08-30T08:44:07Z</time>
      </trkpt>
      <trkpt lat="44.41994" lon="6.74415">
        <ele>1295.8</ele>
        <time>2021-08-30T08:44:11Z</time>
      </trkpt>
      <trkpt lat="44.42003" lon="6.74414">
        <ele>1296.2</ele>
        <time>2021-08-30T08:44:15Z</time>
      </trkpt>
      <trkpt lat="44.42011" lon="6.74413">
        <ele>1296.3</ele>
        <time>2021-08-30T08:44:19Z</time>
      </trkpt>
      <trkpt lat="44.4202" lon="6.74414">
        <ele>1297.1</ele>
        <time>2021-08-30T08:44:23Z</time>
      </trkpt>
      <trkpt lat="44.42028" lon="6.74415">
        <ele>1297.8</ele>
        <time>2021-08-30T08:44:27Z</time>
      </trkpt>
      <trkpt lat="44.42037" lon="6.74416">
        <ele>1298.6</ele>
        <time>2021-08-30T08:44:31Z</time>
      </trkpt>
      <trkpt lat="44.42045" lon="6.74417">
        <ele>1299.3</ele>
        <time>2021-08-30T08:44:35Z</time>
      </trkpt>
      <trkpt lat="44.42054" lon="6.74419">
        <ele>1300.5</ele>
        <time>2021-08-30T08:44:39Z</time>
      </trkpt>
      <trkpt lat="44.42062" lon="6.74419">
        <ele>1301</ele>
        <time>2021-08-30T08:44:43Z</time>
      </trkpt>
      <trkpt lat="44.42071" lon="6.74418">
        <ele>1301</ele>
        <time>2021-08-30T08:44:47Z</time>
      </trkpt>
      <trkpt lat="44.4208" lon="6.74418">
        <ele>1301.4</ele>
        <time>2021-08-30T08:44:51Z</time>
      </trkpt>
      <trkpt lat="44.42088" lon="6.74418">
        <ele>1302.3</ele>
        <time>2021-08-30T08:44:55Z</time>
      </trkpt>
      <trkpt lat="44.42096" lon="6.74417">
        <ele>1303.1</ele>
        <time>2021-08-30T08:44:59Z</time>
      </trkpt>
      <trkpt lat="44.42104" lon="6.74416">
        <ele>1304</ele>
        <time>2021-08-30T08:45:03Z</time>
      </trkpt>
      <trkpt lat="44.42112" lon="6.74418">
        <ele>1306.1</ele>
        <time>2021-08-30T08:45:07Z</time>
      </trkpt>
      <trkpt lat="44.4212" lon="6.74418">
        <ele>1307.3</ele>
        <time>2021-08-30T08:45:11Z</time>
      </trkpt>
      <trkpt lat="44.42127" lon="6.74416">
        <ele>1307.6</ele>
        <time>2021-08-30T08:45:15Z</time>
      </trkpt>
      <trkpt lat="44.42131" lon="6.74422">
        <ele>1310.7</ele>
        <time>2021-08-30T08:45:19Z</time>
      </trkpt>
      <trkpt lat="44.42126" lon="6.74427">
        <ele>1312.1</ele>
        <time>2021-08-30T08:45:23Z</time>
      </trkpt>
      <trkpt lat="44.42119" lon="6.74429">
        <ele>1311.9</ele>
        <time>2021-08-30T08:45:27Z</time>
      </trkpt>
      <trkpt lat="44.4211" lon="6.74432">
        <ele>1311.9</ele>
        <time>2021-08-30T08:45:31Z</time>
      </trkpt>
      <trkpt lat="44.42103" lon="6.74436">
        <ele>1312.7</ele>
        <time>2021-08-30T08:45:35Z</time>
      </trkpt>
      <trkpt lat="44.42095" lon="6.74439">
        <ele>1312.9</ele>
        <time>2021-08-30T08:45:39Z</time>
      </trkpt>
      <trkpt lat="44.42087" lon="6.74442">
        <ele>1313.1</ele>
        <time>2021-08-30T08:45:43Z</time>
      </trkpt>
      <trkpt lat="44.42079" lon="6.74445">
        <ele>1313.5</ele>
        <time>2021-08-30T08:45:47Z</time>
      </trkpt>
      <trkpt lat="44.4207" lon="6.74446">
        <ele>1313.1</ele>
        <time>2021-08-30T08:45:51Z</time>
      </trkpt>
      <trkpt lat="44.42062" lon="6.74449">
        <ele>1313.6</ele>
        <time>2021-08-30T08:45:55Z</time>
      </trkpt>
      <trkpt lat="44.42054" lon="6.7445">
        <ele>1313.2</ele>
        <time>2021-08-30T08:45:59Z</time>
      </trkpt>
      <trkpt lat="44.42047" lon="6.74454">
        <ele>1314.1</ele>
        <time>2021-08-30T08:46:03Z</time>
      </trkpt>
      <trkpt lat="44.42049" lon="6.74462">
        <ele>1317.6</ele>
        <time>2021-08-30T08:46:07Z</time>
      </trkpt>
      <trkpt lat="44.42057" lon="6.74459">
        <ele>1317.3</ele>
        <time>2021-08-30T08:46:11Z</time>
      </trkpt>
      <trkpt lat="44.42064" lon="6.74458">
        <ele>1317.7</ele>
        <time>2021-08-30T08:46:15Z</time>
      </trkpt>
      <trkpt lat="44.42071" lon="6.74459">
        <ele>1318.9</ele>
        <time>2021-08-30T08:46:19Z</time>
      </trkpt>
      <trkpt lat="44.42077" lon="6.74461">
        <ele>1320.5</ele>
        <time>2021-08-30T08:46:23Z</time>
      </trkpt>
      <trkpt lat="44.42084" lon="6.74461">
        <ele>1321.3</ele>
        <time>2021-08-30T08:46:27Z</time>
      </trkpt>
      <trkpt lat="44.42093" lon="6.7446">
        <ele>1322</ele>
        <time>2021-08-30T08:46:31Z</time>
      </trkpt>
      <trkpt lat="44.42102" lon="6.74459">
        <ele>1322.8</ele>
        <time>2021-08-30T08:46:35Z</time>
      </trkpt>
      <trkpt lat="44.42111" lon="6.74459">
        <ele>1323.9</ele>
        <time>2021-08-30T08:46:39Z</time>
      </trkpt>
      <trkpt lat="44.42119" lon="6.74457">
        <ele>1324.1</ele>
        <time>2021-08-30T08:46:43Z</time>
      </trkpt>
      <trkpt lat="44.42126" lon="6.74455">
        <ele>1324.2</ele>
        <time>2021-08-30T08:46:47Z</time>
      </trkpt>
      <trkpt lat="44.42135" lon="6.74453">
        <ele>1324.5</ele>
        <time>2021-08-30T08:46:51Z</time>
      </trkpt>
      <trkpt lat="44.42145" lon="6.74452">
        <ele>1325.5</ele>
        <time>2021-08-30T08:46:55Z</time>
      </trkpt>
      <trkpt lat="44.42156" lon="6.74451">
        <ele>1326.6</ele>
        <time>2021-08-30T08:46:59Z</time>
      </trkpt>
      <trkpt lat="44.42165" lon="6.74449">
        <ele>1327</ele>
        <time>2021-08-30T08:47:03Z</time>
      </trkpt>
      <trkpt lat="44.42175" lon="6.74447">
        <ele>1328.1</ele>
        <time>2021-08-30T08:47:07Z</time>
      </trkpt>
      <trkpt lat="44.42186" lon="6.74444">
        <ele>1329.2</ele>
        <time>2021-08-30T08:47:11Z</time>
      </trkpt>
      <trkpt lat="44.42195" lon="6.74439">
        <ele>1328.9</ele>
        <time>2021-08-30T08:47:15Z</time>
      </trkpt>
      <trkpt lat="44.42205" lon="6.74434">
        <ele>1328.8</ele>
        <time>2021-08-30T08:47:19Z</time>
      </trkpt>
      <trkpt lat="44.42214" lon="6.74428">
        <ele>1328</ele>
        <time>2021-08-30T08:47:23Z</time>
      </trkpt>
      <trkpt lat="44.4222" lon="6.74423">
        <ele>1327</ele>
        <time>2021-08-30T08:47:27Z</time>
      </trkpt>
      <trkpt lat="44.42226" lon="6.74417">
        <ele>1325.5</ele>
        <time>2021-08-30T08:47:31Z</time>
      </trkpt>
      <trkpt lat="44.42232" lon="6.74412">
        <ele>1324.9</ele>
        <time>2021-08-30T08:47:35Z</time>
      </trkpt>
      <trkpt lat="44.42238" lon="6.7441">
        <ele>1325.3</ele>
        <time>2021-08-30T08:47:39Z</time>
      </trkpt>
      <trkpt lat="44.42245" lon="6.74407">
        <ele>1325.6</ele>
        <time>2021-08-30T08:47:43Z</time>
      </trkpt>
      <trkpt lat="44.42251" lon="6.74404">
        <ele>1325.8</ele>
        <time>2021-08-30T08:47:47Z</time>
      </trkpt>
      <trkpt lat="44.42258" lon="6.74402">
        <ele>1327.7</ele>
        <time>2021-08-30T08:47:51Z</time>
      </trkpt>
      <trkpt lat="44.42261" lon="6.74409">
        <ele>1331.5</ele>
        <time>2021-08-30T08:47:55Z</time>
      </trkpt>
      <trkpt lat="44.42255" lon="6.74415">
        <ele>1331.4</ele>
        <time>2021-08-30T08:47:59Z</time>
      </trkpt>
      <trkpt lat="44.42249" lon="6.74418">
        <ele>1330.4</ele>
        <time>2021-08-30T08:48:03Z</time>
      </trkpt>
      <trkpt lat="44.42243" lon="6.74424">
        <ele>1332</ele>
        <time>2021-08-30T08:48:07Z</time>
      </trkpt>
      <trkpt lat="44.42238" lon="6.7443">
        <ele>1333.7</ele>
        <time>2021-08-30T08:48:11Z</time>
      </trkpt>
      <trkpt lat="44.42233" lon="6.74437">
        <ele>1335.8</ele>
        <time>2021-08-30T08:48:15Z</time>
      </trkpt>
      <trkpt lat="44.42228" lon="6.74443">
        <ele>1337.5</ele>
        <time>2021-08-30T08:48:19Z</time>
      </trkpt>
      <trkpt lat="44.42223" lon="6.74449">
        <ele>1339.1</ele>
        <time>2021-08-30T08:48:23Z</time>
      </trkpt>
      <trkpt lat="44.42219" lon="6.74455">
        <ele>1340.8</ele>
        <time>2021-08-30T08:48:27Z</time>
      </trkpt>
      <trkpt lat="44.42215" lon="6.74462">
        <ele>1343</ele>
        <time>2021-08-30T08:48:31Z</time>
      </trkpt>
      <trkpt lat="44.4221" lon="6.74467">
        <ele>1344.1</ele>
        <time>2021-08-30T08:48:35Z</time>
      </trkpt>
      <trkpt lat="44.42205" lon="6.74473">
        <ele>1345.6</ele>
        <time>2021-08-30T08:48:39Z</time>
      </trkpt>
      <trkpt lat="44.422" lon="6.74478">
        <ele>1346.6</ele>
        <time>2021-08-30T08:48:43Z</time>
      </trkpt>
      <trkpt lat="44.42195" lon="6.74483">
        <ele>1347.6</ele>
        <time>2021-08-30T08:48:47Z</time>
      </trkpt>
      <trkpt lat="44.4219" lon="6.74487">
        <ele>1348.1</ele>
        <time>2021-08-30T08:48:51Z</time>
      </trkpt>
      <trkpt lat="44.42184" lon="6.7449">
        <ele>1348</ele>
        <time>2021-08-30T08:48:55Z</time>
      </trkpt>
      <trkpt lat="44.42179" lon="6.74492">
        <ele>1347.6</ele>
        <time>2021-08-30T08:48:59Z</time>
      </trkpt>
      <trkpt lat="44.42172" lon="6.74493">
        <ele>1346.4</ele>
        <time>2021-08-30T08:49:03Z</time>
      </trkpt>
      <trkpt lat="44.42167" lon="6.74495">
        <ele>1346</ele>
        <time>2021-08-30T08:49:07Z</time>
      </trkpt>
      <trkpt lat="44.42162" lon="6.74498">
        <ele>1346.7</ele>
        <time>2021-08-30T08:49:11Z</time>
      </trkpt>
      <trkpt lat="44.42155" lon="6.74499">
        <ele>1346.3</ele>
        <time>2021-08-30T08:49:15Z</time>
      </trkpt>
      <trkpt lat="44.42149" lon="6.745">
        <ele>1346.1</ele>
        <time>2021-08-30T08:49:19Z</time>
      </trkpt>
      <trkpt lat="44.42143" lon="6.74504">
        <ele>1347.2</ele>
        <time>2021-08-30T08:49:23Z</time>
      </trkpt>
      <trkpt lat="44.42138" lon="6.74508">
        <ele>1348.5</ele>
        <time>2021-08-30T08:49:27Z</time>
      </trkpt>
      <trkpt lat="44.42134" lon="6.74512">
        <ele>1349.8</ele>
        <time>2021-08-30T08:49:31Z</time>
      </trkpt>
      <trkpt lat="44.42127" lon="6.74515">
        <ele>1350.3</ele>
        <time>2021-08-30T08:49:35Z</time>
      </trkpt>
      <trkpt lat="44.4212" lon="6.74521">
        <ele>1352.1</ele>
        <time>2021-08-30T08:49:39Z</time>
      </trkpt>
      <trkpt lat="44.42112" lon="6.74527">
        <ele>1353.8</ele>
        <time>2021-08-30T08:49:43Z</time>
      </trkpt>
      <trkpt lat="44.42116" lon="6.7453">
        <ele>1355.6</ele>
        <time>2021-08-30T08:49:47Z</time>
      </trkpt>
      <trkpt lat="44.4212" lon="6.74528">
        <ele>1355.2</ele>
        <time>2021-08-30T08:49:51Z</time>
      </trkpt>
      <trkpt lat="44.42125" lon="6.74526">
        <ele>1354.9</ele>
        <time>2021-08-30T08:49:55Z</time>
      </trkpt>
      <trkpt lat="44.42131" lon="6.74524">
        <ele>1354.7</ele>
        <time>2021-08-30T08:49:59Z</time>
      </trkpt>
      <trkpt lat="44.42137" lon="6.74525">
        <ele>1355.9</ele>
        <time>2021-08-30T08:50:03Z</time>
      </trkpt>
      <trkpt lat="44.42141" lon="6.74524">
        <ele>1355.9</ele>
        <time>2021-08-30T08:50:07Z</time>
      </trkpt>
      <trkpt lat="44.42146" lon="6.74524">
        <ele>1356.5</ele>
        <time>2021-08-30T08:50:11Z</time>
      </trkpt>
      <trkpt lat="44.42151" lon="6.74525">
        <ele>1357.5</ele>
        <time>2021-08-30T08:50:15Z</time>
      </trkpt>
      <trkpt lat="44.42156" lon="6.74528">
        <ele>1359.5</ele>
        <time>2021-08-30T08:50:19Z</time>
      </trkpt>
      <trkpt lat="44.42161" lon="6.74531">
        <ele>1361.4</ele>
        <time>2021-08-30T08:50:23Z</time>
      </trkpt>
      <trkpt lat="44.42163" lon="6.74538">
        <ele>1364.9</ele>
        <time>2021-08-30T08:50:27Z</time>
      </trkpt>
      <trkpt lat="44.4216" lon="6.74542">
        <ele>1366.3</ele>
        <time>2021-08-30T08:50:31Z</time>
      </trkpt>
      <trkpt lat="44.42154" lon="6.74541">
        <ele>1365.1</ele>
        <time>2021-08-30T08:50:35Z</time>
      </trkpt>
      <trkpt lat="44.42147" lon="6.74539">
        <ele>1363.3</ele>
        <time>2021-08-30T08:50:39Z</time>
      </trkpt>
      <trkpt lat="44.42136" lon="6.7454">
        <ele>1362.4</ele>
        <time>2021-08-30T08:50:43Z</time>
      </trkpt>
      <trkpt lat="44.42125" lon="6.74544">
        <ele>1362.8</ele>
        <time>2021-08-30T08:50:47Z</time>
      </trkpt>
      <trkpt lat="44.42112" lon="6.74548">
        <ele>1362.9</ele>
        <time>2021-08-30T08:50:51Z</time>
      </trkpt>
      <trkpt lat="44.42098" lon="6.74553">
        <ele>1363.2</ele>
        <time>2021-08-30T08:50:55Z</time>
      </trkpt>
      <trkpt lat="44.42085" lon="6.74558">
        <ele>1363.6</ele>
        <time>2021-08-30T08:50:59Z</time>
      </trkpt>
      <trkpt lat="44.42071" lon="6.74564">
        <ele>1363.2</ele>
        <time>2021-08-30T08:51:03Z</time>
      </trkpt>
      <trkpt lat="44.42057" lon="6.7457">
        <ele>1362.6</ele>
        <time>2021-08-30T08:51:07Z</time>
      </trkpt>
      <trkpt lat="44.42044" lon="6.74577">
        <ele>1362.5</ele>
        <time>2021-08-30T08:51:11Z</time>
      </trkpt>
      <trkpt lat="44.42035" lon="6.74585">
        <ele>1363.5</ele>
        <time>2021-08-30T08:51:15Z</time>
      </trkpt>
      <trkpt lat="44.42029" lon="6.74592">
        <ele>1364.6</ele>
        <time>2021-08-30T08:51:19Z</time>
      </trkpt>
      <trkpt lat="44.42023" lon="6.746">
        <ele>1365.9</ele>
        <time>2021-08-30T08:51:23Z</time>
      </trkpt>
      <trkpt lat="44.42016" lon="6.74607">
        <ele>1366.7</ele>
        <time>2021-08-30T08:51:27Z</time>
      </trkpt>
      <trkpt lat="44.42009" lon="6.74614">
        <ele>1367.4</ele>
        <time>2021-08-30T08:51:31Z</time>
      </trkpt>
      <trkpt lat="44.42001" lon="6.7462">
        <ele>1367.6</ele>
        <time>2021-08-30T08:51:35Z</time>
      </trkpt>
      <trkpt lat="44.41996" lon="6.74626">
        <ele>1368.6</ele>
        <time>2021-08-30T08:51:39Z</time>
      </trkpt>
      <trkpt lat="44.4199" lon="6.74634">
        <ele>1370.2</ele>
        <time>2021-08-30T08:51:43Z</time>
      </trkpt>
      <trkpt lat="44.41984" lon="6.74641">
        <ele>1371.4</ele>
        <time>2021-08-30T08:51:47Z</time>
      </trkpt>
      <trkpt lat="44.41978" lon="6.74648">
        <ele>1372.6</ele>
        <time>2021-08-30T08:51:51Z</time>
      </trkpt>
      <trkpt lat="44.41973" lon="6.74654">
        <ele>1373.7</ele>
        <time>2021-08-30T08:51:55Z</time>
      </trkpt>
      <trkpt lat="44.41966" lon="6.74659">
        <ele>1374</ele>
        <time>2021-08-30T08:51:59Z</time>
      </trkpt>
      <trkpt lat="44.41958" lon="6.74661">
        <ele>1373.1</ele>
        <time>2021-08-30T08:52:03Z</time>
      </trkpt>
      <trkpt lat="44.41953" lon="6.74668">
        <ele>1374.4</ele>
        <time>2021-08-30T08:52:07Z</time>
      </trkpt>
      <trkpt lat="44.41957" lon="6.74675">
        <ele>1377.3</ele>
        <time>2021-08-30T08:52:11Z</time>
      </trkpt>
      <trkpt lat="44.41964" lon="6.74673">
        <ele>1378.1</ele>
        <time>2021-08-30T08:52:15Z</time>
      </trkpt>
      <trkpt lat="44.41968" lon="6.74673">
        <ele>1378.8</ele>
        <time>2021-08-30T08:52:19Z</time>
      </trkpt>
      <trkpt lat="44.41969" lon="6.7467">
        <ele>1378.1</ele>
        <time>2021-08-30T08:55:07Z</time>
      </trkpt>
      <trkpt lat="44.41973" lon="6.74669">
        <ele>1378.6</ele>
        <time>2021-08-30T08:55:11Z</time>
      </trkpt>
      <trkpt lat="44.41976" lon="6.74668">
        <ele>1378.8</ele>
        <time>2021-08-30T08:55:15Z</time>
      </trkpt>
      <trkpt lat="44.41981" lon="6.74666">
        <ele>1379.1</ele>
        <time>2021-08-30T08:55:19Z</time>
      </trkpt>
      <trkpt lat="44.41986" lon="6.74665">
        <ele>1379.8</ele>
        <time>2021-08-30T08:55:23Z</time>
      </trkpt>
      <trkpt lat="44.4199" lon="6.74664">
        <ele>1380.2</ele>
        <time>2021-08-30T08:55:27Z</time>
      </trkpt>
      <trkpt lat="44.41995" lon="6.74664">
        <ele>1381.1</ele>
        <time>2021-08-30T08:55:31Z</time>
      </trkpt>
      <trkpt lat="44.42" lon="6.74662">
        <ele>1381.4</ele>
        <time>2021-08-30T08:55:35Z</time>
      </trkpt>
      <trkpt lat="44.42004" lon="6.74662">
        <ele>1382.4</ele>
        <time>2021-08-30T08:55:39Z</time>
      </trkpt>
      <trkpt lat="44.42009" lon="6.74661">
        <ele>1383.2</ele>
        <time>2021-08-30T08:55:43Z</time>
      </trkpt>
      <trkpt lat="44.42014" lon="6.74659">
        <ele>1383.8</ele>
        <time>2021-08-30T08:55:47Z</time>
      </trkpt>
      <trkpt lat="44.42019" lon="6.74658">
        <ele>1384.6</ele>
        <time>2021-08-30T08:55:51Z</time>
      </trkpt>
      <trkpt lat="44.42023" lon="6.74657">
        <ele>1385.2</ele>
        <time>2021-08-30T08:55:55Z</time>
      </trkpt>
      <trkpt lat="44.42029" lon="6.74657">
        <ele>1386.7</ele>
        <time>2021-08-30T08:55:59Z</time>
      </trkpt>
      <trkpt lat="44.42037" lon="6.74657">
        <ele>1388.6</ele>
        <time>2021-08-30T08:56:03Z</time>
      </trkpt>
      <trkpt lat="44.42043" lon="6.74658">
        <ele>1390.4</ele>
        <time>2021-08-30T08:56:07Z</time>
      </trkpt>
      <trkpt lat="44.42049" lon="6.74657">
        <ele>1391.4</ele>
        <time>2021-08-30T08:56:11Z</time>
      </trkpt>
      <trkpt lat="44.42054" lon="6.74657">
        <ele>1392.6</ele>
        <time>2021-08-30T08:56:15Z</time>
      </trkpt>
      <trkpt lat="44.4206" lon="6.74657">
        <ele>1394.1</ele>
        <time>2021-08-30T08:56:19Z</time>
      </trkpt>
      <trkpt lat="44.42065" lon="6.74655">
        <ele>1394.6</ele>
        <time>2021-08-30T08:56:23Z</time>
      </trkpt>
      <trkpt lat="44.42071" lon="6.74654">
        <ele>1395.7</ele>
        <time>2021-08-30T08:56:27Z</time>
      </trkpt>
      <trkpt lat="44.42077" lon="6.74655">
        <ele>1397.4</ele>
        <time>2021-08-30T08:56:31Z</time>
      </trkpt>
      <trkpt lat="44.42082" lon="6.74654">
        <ele>1398.3</ele>
        <time>2021-08-30T08:56:35Z</time>
      </trkpt>
      <trkpt lat="44.42087" lon="6.74655">
        <ele>1399.6</ele>
        <time>2021-08-30T08:56:39Z</time>
      </trkpt>
      <trkpt lat="44.42086" lon="6.7466">
        <ele>1401.2</ele>
        <time>2021-08-30T08:56:43Z</time>
      </trkpt>
      <trkpt lat="44.42081" lon="6.74663">
        <ele>1401.2</ele>
        <time>2021-08-30T08:56:47Z</time>
      </trkpt>
      <trkpt lat="44.42071" lon="6.74664">
        <ele>1399.1</ele>
        <time>2021-08-30T08:56:51Z</time>
      </trkpt>
      <trkpt lat="44.42061" lon="6.7467">
        <ele>1398.7</ele>
        <time>2021-08-30T08:56:55Z</time>
      </trkpt>
      <trkpt lat="44.42052" lon="6.74675">
        <ele>1398.1</ele>
        <time>2021-08-30T08:56:59Z</time>
      </trkpt>
      <trkpt lat="44.42041" lon="6.74681">
        <ele>1397.4</ele>
        <time>2021-08-30T08:57:03Z</time>
      </trkpt>
      <trkpt lat="44.42029" lon="6.74685">
        <ele>1395.8</ele>
        <time>2021-08-30T08:57:07Z</time>
      </trkpt>
      <trkpt lat="44.42017" lon="6.74691">
        <ele>1394.9</ele>
        <time>2021-08-30T08:57:11Z</time>
      </trkpt>
      <trkpt lat="44.42004" lon="6.74699">
        <ele>1394.4</ele>
        <time>2021-08-30T08:57:15Z</time>
      </trkpt>
      <trkpt lat="44.41992" lon="6.74707">
        <ele>1394.4</ele>
        <time>2021-08-30T08:57:19Z</time>
      </trkpt>
      <trkpt lat="44.41981" lon="6.74713">
        <ele>1394.1</ele>
        <time>2021-08-30T08:57:23Z</time>
      </trkpt>
      <trkpt lat="44.4197" lon="6.7472">
        <ele>1394.1</ele>
        <time>2021-08-30T08:57:27Z</time>
      </trkpt>
      <trkpt lat="44.41959" lon="6.74726">
        <ele>1393.7</ele>
        <time>2021-08-30T08:57:31Z</time>
      </trkpt>
      <trkpt lat="44.41952" lon="6.74731">
        <ele>1393.7</ele>
        <time>2021-08-30T08:57:35Z</time>
      </trkpt>
      <trkpt lat="44.41945" lon="6.74734">
        <ele>1393.2</ele>
        <time>2021-08-30T08:57:39Z</time>
      </trkpt>
      <trkpt lat="44.41936" lon="6.74739">
        <ele>1392.8</ele>
        <time>2021-08-30T08:57:43Z</time>
      </trkpt>
      <trkpt lat="44.41926" lon="6.74743">
        <ele>1391.9</ele>
        <time>2021-08-30T08:57:47Z</time>
      </trkpt>
      <trkpt lat="44.41915" lon="6.74745">
        <ele>1390.3</ele>
        <time>2021-08-30T08:57:51Z</time>
      </trkpt>
      <trkpt lat="44.419" lon="6.7475">
        <ele>1390</ele>
        <time>2021-08-30T08:57:55Z</time>
      </trkpt>
      <trkpt lat="44.41888" lon="6.74751">
        <ele>1388.8</ele>
        <time>2021-08-30T08:57:59Z</time>
      </trkpt>
      <trkpt lat="44.41878" lon="6.74758">
        <ele>1389.4</ele>
        <time>2021-08-30T08:58:03Z</time>
      </trkpt>
      <trkpt lat="44.41865" lon="6.74766">
        <ele>1389.5</ele>
        <time>2021-08-30T08:58:07Z</time>
      </trkpt>
      <trkpt lat="44.41854" lon="6.74778">
        <ele>1390.4</ele>
        <time>2021-08-30T08:58:11Z</time>
      </trkpt>
      <trkpt lat="44.41848" lon="6.74794">
        <ele>1392.7</ele>
        <time>2021-08-30T08:58:15Z</time>
      </trkpt>
      <trkpt lat="44.41843" lon="6.74811">
        <ele>1395.1</ele>
        <time>2021-08-30T08:58:19Z</time>
      </trkpt>
      <trkpt lat="44.41837" lon="6.74827">
        <ele>1396.7</ele>
        <time>2021-08-30T08:58:23Z</time>
      </trkpt>
      <trkpt lat="44.4183" lon="6.74839">
        <ele>1396.7</ele>
        <time>2021-08-30T08:58:27Z</time>
      </trkpt>
      <trkpt lat="44.41823" lon="6.74846">
        <ele>1395.5</ele>
        <time>2021-08-30T08:58:31Z</time>
      </trkpt>
      <trkpt lat="44.41827" lon="6.74853">
        <ele>1397</ele>
        <time>2021-08-30T08:58:35Z</time>
      </trkpt>
      <trkpt lat="44.41827" lon="6.74864">
        <ele>1397.8</ele>
        <time>2021-08-30T08:58:39Z</time>
      </trkpt>
      <trkpt lat="44.41824" lon="6.74877">
        <ele>1397.8</ele>
        <time>2021-08-30T08:58:43Z</time>
      </trkpt>
      <trkpt lat="44.41823" lon="6.74889">
        <ele>1398.3</ele>
        <time>2021-08-30T08:58:47Z</time>
      </trkpt>
      <trkpt lat="44.41821" lon="6.74901">
        <ele>1398.4</ele>
        <time>2021-08-30T08:58:51Z</time>
      </trkpt>
      <trkpt lat="44.41819" lon="6.74909">
        <ele>1398.2</ele>
        <time>2021-08-30T08:58:55Z</time>
      </trkpt>
      <trkpt lat="44.41818" lon="6.74921">
        <ele>1398.7</ele>
        <time>2021-08-30T08:58:59Z</time>
      </trkpt>
      <trkpt lat="44.41813" lon="6.74937">
        <ele>1398.3</ele>
        <time>2021-08-30T08:59:03Z</time>
      </trkpt>
      <trkpt lat="44.41807" lon="6.74961">
        <ele>1397.8</ele>
        <time>2021-08-30T08:59:07Z</time>
      </trkpt>
      <trkpt lat="44.41803" lon="6.7498">
        <ele>1397.5</ele>
        <time>2021-08-30T08:59:11Z</time>
      </trkpt>
      <trkpt lat="44.41798" lon="6.74997">
        <ele>1396.4</ele>
        <time>2021-08-30T08:59:15Z</time>
      </trkpt>
      <trkpt lat="44.41794" lon="6.75011">
        <ele>1396.6</ele>
        <time>2021-08-30T08:59:19Z</time>
      </trkpt>
      <trkpt lat="44.41792" lon="6.75015">
        <ele>1396.3</ele>
        <time>2021-08-30T08:59:27Z</time>
      </trkpt>
      <trkpt lat="44.4179" lon="6.7502">
        <ele>1396.1</ele>
        <time>2021-08-30T08:59:35Z</time>
      </trkpt>
      <trkpt lat="44.4179" lon="6.7502">
        <ele>1396.1</ele>
        <time>2021-08-30T08:59:39Z</time>
      </trkpt>
      <trkpt lat="44.41786" lon="6.75025">
        <ele>1394.9</ele>
        <time>2021-08-30T08:59:43Z</time>
      </trkpt>
      <trkpt lat="44.41786" lon="6.75034">
        <ele>1396.4</ele>
        <time>2021-08-30T08:59:47Z</time>
      </trkpt>
      <trkpt lat="44.4178" lon="6.75042">
        <ele>1394.4</ele>
        <time>2021-08-30T08:59:51Z</time>
      </trkpt>
      <trkpt lat="44.41773" lon="6.75053">
        <ele>1392.3</ele>
        <time>2021-08-30T08:59:55Z</time>
      </trkpt>
      <trkpt lat="44.41765" lon="6.75066">
        <ele>1389.6</ele>
        <time>2021-08-30T08:59:59Z</time>
      </trkpt>
      <trkpt lat="44.41759" lon="6.75078">
        <ele>1387.7</ele>
        <time>2021-08-30T09:00:03Z</time>
      </trkpt>
      <trkpt lat="44.41752" lon="6.75089">
        <ele>1385.6</ele>
        <time>2021-08-30T09:00:07Z</time>
      </trkpt>
      <trkpt lat="44.41747" lon="6.75102">
        <ele>1386.2</ele>
        <time>2021-08-30T09:00:11Z</time>
      </trkpt>
      <trkpt lat="44.4174" lon="6.75112">
        <ele>1385</ele>
        <time>2021-08-30T09:00:15Z</time>
      </trkpt>
      <trkpt lat="44.41731" lon="6.75119">
        <ele>1381.7</ele>
        <time>2021-08-30T09:00:19Z</time>
      </trkpt>
      <trkpt lat="44.41722" lon="6.75126">
        <ele>1378.1</ele>
        <time>2021-08-30T09:00:23Z</time>
      </trkpt>
      <trkpt lat="44.41715" lon="6.75138">
        <ele>1376.1</ele>
        <time>2021-08-30T09:00:27Z</time>
      </trkpt>
      <trkpt lat="44.41711" lon="6.75151">
        <ele>1375.8</ele>
        <time>2021-08-30T09:00:31Z</time>
      </trkpt>
      <trkpt lat="44.41709" lon="6.75164">
        <ele>1376.5</ele>
        <time>2021-08-30T09:00:35Z</time>
      </trkpt>
      <trkpt lat="44.41709" lon="6.75177">
        <ele>1376.8</ele>
        <time>2021-08-30T09:00:39Z</time>
      </trkpt>
      <trkpt lat="44.41709" lon="6.7518">
        <ele>1376.7</ele>
        <time>2021-08-30T09:00:43Z</time>
      </trkpt>
      <trkpt lat="44.4171" lon="6.75185">
        <ele>1377.3</ele>
        <time>2021-08-30T09:00:47Z</time>
      </trkpt>
      <trkpt lat="44.41712" lon="6.75192">
        <ele>1378.6</ele>
        <time>2021-08-30T09:00:51Z</time>
      </trkpt>
      <trkpt lat="44.41714" lon="6.75195">
        <ele>1379.9</ele>
        <time>2021-08-30T09:00:55Z</time>
      </trkpt>
      <trkpt lat="44.41715" lon="6.75199">
        <ele>1380.6</ele>
        <time>2021-08-30T09:00:59Z</time>
      </trkpt>
      <trkpt lat="44.41716" lon="6.75205">
        <ele>1381.3</ele>
        <time>2021-08-30T09:01:03Z</time>
      </trkpt>
      <trkpt lat="44.41717" lon="6.75209">
        <ele>1381.9</ele>
        <time>2021-08-30T09:01:07Z</time>
      </trkpt>
      <trkpt lat="44.41717" lon="6.75214">
        <ele>1381.9</ele>
        <time>2021-08-30T09:01:11Z</time>
      </trkpt>
      <trkpt lat="44.4172" lon="6.7522">
        <ele>1384</ele>
        <time>2021-08-30T09:01:15Z</time>
      </trkpt>
      <trkpt lat="44.41724" lon="6.75224">
        <ele>1387</ele>
        <time>2021-08-30T09:01:19Z</time>
      </trkpt>
      <trkpt lat="44.41728" lon="6.75226">
        <ele>1389.9</ele>
        <time>2021-08-30T09:01:23Z</time>
      </trkpt>
      <trkpt lat="44.4173" lon="6.75227">
        <ele>1391.4</ele>
        <time>2021-08-30T09:01:27Z</time>
      </trkpt>
      <trkpt lat="44.41729" lon="6.75231">
        <ele>1390.7</ele>
        <time>2021-08-30T09:01:31Z</time>
      </trkpt>
      <trkpt lat="44.41729" lon="6.75236">
        <ele>1390.7</ele>
        <time>2021-08-30T09:01:35Z</time>
      </trkpt>
      <trkpt lat="44.41728" lon="6.75239">
        <ele>1390</ele>
        <time>2021-08-30T09:01:39Z</time>
      </trkpt>
      <trkpt lat="44.41729" lon="6.75244">
        <ele>1390.8</ele>
        <time>2021-08-30T09:01:43Z</time>
      </trkpt>
      <trkpt lat="44.41732" lon="6.75247">
        <ele>1393.1</ele>
        <time>2021-08-30T09:01:47Z</time>
      </trkpt>
      <trkpt lat="44.41733" lon="6.75252">
        <ele>1393.6</ele>
        <time>2021-08-30T09:01:55Z</time>
      </trkpt>
      <trkpt lat="44.41736" lon="6.75255">
        <ele>1395.4</ele>
        <time>2021-08-30T09:01:59Z</time>
      </trkpt>
      <trkpt lat="44.41737" lon="6.75256">
        <ele>1396</ele>
        <time>2021-08-30T09:02:07Z</time>
      </trkpt>
      <trkpt lat="44.41739" lon="6.75263">
        <ele>1396.4</ele>
        <time>2021-08-30T09:02:11Z</time>
      </trkpt>
      <trkpt lat="44.41743" lon="6.75274">
        <ele>1397.5</ele>
        <time>2021-08-30T09:02:15Z</time>
      </trkpt>
      <trkpt lat="44.41749" lon="6.75281">
        <ele>1400.7</ele>
        <time>2021-08-30T09:02:19Z</time>
      </trkpt>
      <trkpt lat="44.41752" lon="6.7529">
        <ele>1401.3</ele>
        <time>2021-08-30T09:02:23Z</time>
      </trkpt>
      <trkpt lat="44.41756" lon="6.75301">
        <ele>1402.4</ele>
        <time>2021-08-30T09:02:27Z</time>
      </trkpt>
      <trkpt lat="44.41761" lon="6.75311">
        <ele>1404.5</ele>
        <time>2021-08-30T09:02:31Z</time>
      </trkpt>
      <trkpt lat="44.41764" lon="6.75321">
        <ele>1405.3</ele>
        <time>2021-08-30T09:02:35Z</time>
      </trkpt>
      <trkpt lat="44.41765" lon="6.75334">
        <ele>1404.2</ele>
        <time>2021-08-30T09:02:39Z</time>
      </trkpt>
      <trkpt lat="44.41766" lon="6.7535">
        <ele>1403.8</ele>
        <time>2021-08-30T09:02:43Z</time>
      </trkpt>
      <trkpt lat="44.4177" lon="6.7536">
        <ele>1406</ele>
        <time>2021-08-30T09:02:47Z</time>
      </trkpt>
      <trkpt lat="44.41771" lon="6.75369">
        <ele>1406</ele>
        <time>2021-08-30T09:02:51Z</time>
      </trkpt>
      <trkpt lat="44.4177" lon="6.7538">
        <ele>1404.3</ele>
        <time>2021-08-30T09:02:55Z</time>
      </trkpt>
      <trkpt lat="44.41771" lon="6.7539">
        <ele>1404.2</ele>
        <time>2021-08-30T09:02:59Z</time>
      </trkpt>
      <trkpt lat="44.41772" lon="6.75404">
        <ele>1403.6</ele>
        <time>2021-08-30T09:03:03Z</time>
      </trkpt>
      <trkpt lat="44.41771" lon="6.75417">
        <ele>1401.8</ele>
        <time>2021-08-30T09:03:07Z</time>
      </trkpt>
      <trkpt lat="44.41771" lon="6.75432">
        <ele>1401.3</ele>
        <time>2021-08-30T09:03:11Z</time>
      </trkpt>
      <trkpt lat="44.41776" lon="6.75444">
        <ele>1404.2</ele>
        <time>2021-08-30T09:03:15Z</time>
      </trkpt>
      <trkpt lat="44.41777" lon="6.75455">
        <ele>1404.4</ele>
        <time>2021-08-30T09:03:19Z</time>
      </trkpt>
      <trkpt lat="44.41779" lon="6.75469">
        <ele>1405.3</ele>
        <time>2021-08-30T09:03:23Z</time>
      </trkpt>
      <trkpt lat="44.41779" lon="6.7548">
        <ele>1404.9</ele>
        <time>2021-08-30T09:03:27Z</time>
      </trkpt>
      <trkpt lat="44.41779" lon="6.75489">
        <ele>1404.5</ele>
        <time>2021-08-30T09:03:31Z</time>
      </trkpt>
      <trkpt lat="44.41777" lon="6.75493">
        <ele>1403.1</ele>
        <time>2021-08-30T09:03:39Z</time>
      </trkpt>
      <trkpt lat="44.41777" lon="6.75499">
        <ele>1402.9</ele>
        <time>2021-08-30T09:03:43Z</time>
      </trkpt>
      <trkpt lat="44.41775" lon="6.7551">
        <ele>1401.2</ele>
        <time>2021-08-30T09:03:47Z</time>
      </trkpt>
      <trkpt lat="44.41776" lon="6.75523">
        <ele>1401.3</ele>
        <time>2021-08-30T09:03:51Z</time>
      </trkpt>
      <trkpt lat="44.41776" lon="6.75538">
        <ele>1400.8</ele>
        <time>2021-08-30T09:03:55Z</time>
      </trkpt>
      <trkpt lat="44.41775" lon="6.75551">
        <ele>1399.7</ele>
        <time>2021-08-30T09:03:59Z</time>
      </trkpt>
      <trkpt lat="44.41776" lon="6.75564">
        <ele>1399.9</ele>
        <time>2021-08-30T09:04:03Z</time>
      </trkpt>
      <trkpt lat="44.41776" lon="6.75578">
        <ele>1399.4</ele>
        <time>2021-08-30T09:04:07Z</time>
      </trkpt>
      <trkpt lat="44.41778" lon="6.7559">
        <ele>1399.5</ele>
        <time>2021-08-30T09:04:11Z</time>
      </trkpt>
      <trkpt lat="44.41778" lon="6.756">
        <ele>1398.1</ele>
        <time>2021-08-30T09:04:15Z</time>
      </trkpt>
      <trkpt lat="44.41781" lon="6.75615">
        <ele>1398</ele>
        <time>2021-08-30T09:04:19Z</time>
      </trkpt>
      <trkpt lat="44.41787" lon="6.75626">
        <ele>1400.6</ele>
        <time>2021-08-30T09:04:23Z</time>
      </trkpt>
      <trkpt lat="44.41791" lon="6.75635">
        <ele>1402.3</ele>
        <time>2021-08-30T09:04:27Z</time>
      </trkpt>
      <trkpt lat="44.41794" lon="6.7564">
        <ele>1403.9</ele>
        <time>2021-08-30T09:04:31Z</time>
      </trkpt>
      <trkpt lat="44.41797" lon="6.75648">
        <ele>1405.2</ele>
        <time>2021-08-30T09:04:35Z</time>
      </trkpt>
      <trkpt lat="44.41801" lon="6.75658">
        <ele>1407.1</ele>
        <time>2021-08-30T09:04:39Z</time>
      </trkpt>
      <trkpt lat="44.41807" lon="6.75666">
        <ele>1410.8</ele>
        <time>2021-08-30T09:04:43Z</time>
      </trkpt>
      <trkpt lat="44.41813" lon="6.75677">
        <ele>1415.3</ele>
        <time>2021-08-30T09:04:47Z</time>
      </trkpt>
      <trkpt lat="44.41817" lon="6.75686">
        <ele>1418.5</ele>
        <time>2021-08-30T09:04:51Z</time>
      </trkpt>
      <trkpt lat="44.41821" lon="6.75697">
        <ele>1422.1</ele>
        <time>2021-08-30T09:04:55Z</time>
      </trkpt>
      <trkpt lat="44.41822" lon="6.75712">
        <ele>1423.4</ele>
        <time>2021-08-30T09:04:59Z</time>
      </trkpt>
      <trkpt lat="44.41823" lon="6.75725">
        <ele>1424.7</ele>
        <time>2021-08-30T09:05:03Z</time>
      </trkpt>
      <trkpt lat="44.41819" lon="6.7573">
        <ele>1420.8</ele>
        <time>2021-08-30T09:05:11Z</time>
      </trkpt>
      <trkpt lat="44.41819" lon="6.75735">
        <ele>1420.8</ele>
        <time>2021-08-30T09:05:15Z</time>
      </trkpt>
      <trkpt lat="44.41818" lon="6.75744">
        <ele>1419.8</ele>
        <time>2021-08-30T09:05:19Z</time>
      </trkpt>
      <trkpt lat="44.41818" lon="6.75756">
        <ele>1419.3</ele>
        <time>2021-08-30T09:05:23Z</time>
      </trkpt>
      <trkpt lat="44.4182" lon="6.75766">
        <ele>1420.5</ele>
        <time>2021-08-30T09:05:27Z</time>
      </trkpt>
      <trkpt lat="44.41821" lon="6.7578">
        <ele>1420.2</ele>
        <time>2021-08-30T09:05:31Z</time>
      </trkpt>
      <trkpt lat="44.41821" lon="6.75796">
        <ele>1418.5</ele>
        <time>2021-08-30T09:05:35Z</time>
      </trkpt>
      <trkpt lat="44.41819" lon="6.75806">
        <ele>1415.3</ele>
        <time>2021-08-30T09:05:39Z</time>
      </trkpt>
      <trkpt lat="44.41817" lon="6.75821">
        <ele>1411.6</ele>
        <time>2021-08-30T09:05:43Z</time>
      </trkpt>
      <trkpt lat="44.41816" lon="6.7584">
        <ele>1407.9</ele>
        <time>2021-08-30T09:05:47Z</time>
      </trkpt>
      <trkpt lat="44.4182" lon="6.75859">
        <ele>1407.8</ele>
        <time>2021-08-30T09:05:51Z</time>
      </trkpt>
      <trkpt lat="44.41824" lon="6.75871">
        <ele>1408.8</ele>
        <time>2021-08-30T09:05:55Z</time>
      </trkpt>
      <trkpt lat="44.41827" lon="6.75889">
        <ele>1407.1</ele>
        <time>2021-08-30T09:05:59Z</time>
      </trkpt>
      <trkpt lat="44.41831" lon="6.75903">
        <ele>1406.9</ele>
        <time>2021-08-30T09:06:03Z</time>
      </trkpt>
      <trkpt lat="44.41836" lon="6.75922">
        <ele>1406.6</ele>
        <time>2021-08-30T09:06:07Z</time>
      </trkpt>
      <trkpt lat="44.41838" lon="6.75941">
        <ele>1405.6</ele>
        <time>2021-08-30T09:06:11Z</time>
      </trkpt>
      <trkpt lat="44.41845" lon="6.7596">
        <ele>1409.5</ele>
        <time>2021-08-30T09:06:15Z</time>
      </trkpt>
      <trkpt lat="44.41849" lon="6.75972">
        <ele>1411.7</ele>
        <time>2021-08-30T09:06:19Z</time>
      </trkpt>
      <trkpt lat="44.41852" lon="6.75991">
        <ele>1412.1</ele>
        <time>2021-08-30T09:06:23Z</time>
      </trkpt>
      <trkpt lat="44.41855" lon="6.76003">
        <ele>1413.9</ele>
        <time>2021-08-30T09:06:27Z</time>
      </trkpt>
      <trkpt lat="44.41855" lon="6.76014">
        <ele>1413.9</ele>
        <time>2021-08-30T09:06:31Z</time>
      </trkpt>
      <trkpt lat="44.41856" lon="6.76031">
        <ele>1415.1</ele>
        <time>2021-08-30T09:06:35Z</time>
      </trkpt>
      <trkpt lat="44.41857" lon="6.76049">
        <ele>1416.3</ele>
        <time>2021-08-30T09:06:39Z</time>
      </trkpt>
      <trkpt lat="44.41856" lon="6.76071">
        <ele>1415.4</ele>
        <time>2021-08-30T09:06:43Z</time>
      </trkpt>
      <trkpt lat="44.41854" lon="6.76088">
        <ele>1413.6</ele>
        <time>2021-08-30T09:06:47Z</time>
      </trkpt>
      <trkpt lat="44.41856" lon="6.76104">
        <ele>1416.6</ele>
        <time>2021-08-30T09:06:51Z</time>
      </trkpt>
      <trkpt lat="44.41853" lon="6.76122">
        <ele>1414.3</ele>
        <time>2021-08-30T09:06:55Z</time>
      </trkpt>
      <trkpt lat="44.4185" lon="6.76138">
        <ele>1412</ele>
        <time>2021-08-30T09:06:59Z</time>
      </trkpt>
      <trkpt lat="44.41847" lon="6.76148">
        <ele>1409.4</ele>
        <time>2021-08-30T09:07:03Z</time>
      </trkpt>
      <trkpt lat="44.41844" lon="6.76158">
        <ele>1406.8</ele>
        <time>2021-08-30T09:07:07Z</time>
      </trkpt>
      <trkpt lat="44.41845" lon="6.76173">
        <ele>1408.4</ele>
        <time>2021-08-30T09:07:11Z</time>
      </trkpt>
      <trkpt lat="44.41844" lon="6.76185">
        <ele>1407.4</ele>
        <time>2021-08-30T09:07:15Z</time>
      </trkpt>
      <trkpt lat="44.41841" lon="6.76203">
        <ele>1404.7</ele>
        <time>2021-08-30T09:07:19Z</time>
      </trkpt>
      <trkpt lat="44.41835" lon="6.76221">
        <ele>1399.5</ele>
        <time>2021-08-30T09:07:23Z</time>
      </trkpt>
      <trkpt lat="44.41832" lon="6.76243">
        <ele>1398.1</ele>
        <time>2021-08-30T09:07:27Z</time>
      </trkpt>
      <trkpt lat="44.41834" lon="6.76257">
        <ele>1399.8</ele>
        <time>2021-08-30T09:07:31Z</time>
      </trkpt>
      <trkpt lat="44.41837" lon="6.76269">
        <ele>1402.6</ele>
        <time>2021-08-30T09:07:35Z</time>
      </trkpt>
      <trkpt lat="44.4184" lon="6.76277">
        <ele>1405.1</ele>
        <time>2021-08-30T09:07:39Z</time>
      </trkpt>
      <trkpt lat="44.41842" lon="6.76288">
        <ele>1406.8</ele>
        <time>2021-08-30T09:07:43Z</time>
      </trkpt>
      <trkpt lat="44.41844" lon="6.76298">
        <ele>1408.3</ele>
        <time>2021-08-30T09:07:47Z</time>
      </trkpt>
      <trkpt lat="44.41847" lon="6.76308">
        <ele>1410.4</ele>
        <time>2021-08-30T09:07:51Z</time>
      </trkpt>
      <trkpt lat="44.41848" lon="6.76318">
        <ele>1411.1</ele>
        <time>2021-08-30T09:07:55Z</time>
      </trkpt>
      <trkpt lat="44.41847" lon="6.7633">
        <ele>1410.4</ele>
        <time>2021-08-30T09:07:59Z</time>
      </trkpt>
      <trkpt lat="44.41849" lon="6.7634">
        <ele>1411</ele>
        <time>2021-08-30T09:08:03Z</time>
      </trkpt>
      <trkpt lat="44.41849" lon="6.7635">
        <ele>1410.2</ele>
        <time>2021-08-30T09:08:07Z</time>
      </trkpt>
      <trkpt lat="44.4185" lon="6.7636">
        <ele>1410</ele>
        <time>2021-08-30T09:08:11Z</time>
      </trkpt>
      <trkpt lat="44.41848" lon="6.76369">
        <ele>1408.1</ele>
        <time>2021-08-30T09:08:15Z</time>
      </trkpt>
      <trkpt lat="44.41847" lon="6.76378">
        <ele>1406.8</ele>
        <time>2021-08-30T09:08:19Z</time>
      </trkpt>
      <trkpt lat="44.4185" lon="6.76387">
        <ele>1407.8</ele>
        <time>2021-08-30T09:08:23Z</time>
      </trkpt>
      <trkpt lat="44.41856" lon="6.76391">
        <ele>1411</ele>
        <time>2021-08-30T09:08:27Z</time>
      </trkpt>
      <trkpt lat="44.41862" lon="6.7639">
        <ele>1414.5</ele>
        <time>2021-08-30T09:08:31Z</time>
      </trkpt>
      <trkpt lat="44.41867" lon="6.7639">
        <ele>1417.4</ele>
        <time>2021-08-30T09:08:35Z</time>
      </trkpt>
      <trkpt lat="44.41872" lon="6.76392">
        <ele>1420.1</ele>
        <time>2021-08-30T09:08:39Z</time>
      </trkpt>
      <trkpt lat="44.41879" lon="6.76398">
        <ele>1423.6</ele>
        <time>2021-08-30T09:08:43Z</time>
      </trkpt>
      <trkpt lat="44.41884" lon="6.76404">
        <ele>1425.9</ele>
        <time>2021-08-30T09:08:47Z</time>
      </trkpt>
      <trkpt lat="44.41884" lon="6.76411">
        <ele>1425.1</ele>
        <time>2021-08-30T09:08:55Z</time>
      </trkpt>
      <trkpt lat="44.41883" lon="6.76416">
        <ele>1424.1</ele>
        <time>2021-08-30T09:08:59Z</time>
      </trkpt>
      <trkpt lat="44.41884" lon="6.76419">
        <ele>1424.9</ele>
        <time>2021-08-30T09:09:03Z</time>
      </trkpt>
      <trkpt lat="44.41886" lon="6.76421">
        <ele>1426.3</ele>
        <time>2021-08-30T09:09:07Z</time>
      </trkpt>
      <trkpt lat="44.41885" lon="6.76424">
        <ele>1426.1</ele>
        <time>2021-08-30T09:09:11Z</time>
      </trkpt>
      <trkpt lat="44.41882" lon="6.76426">
        <ele>1424.6</ele>
        <time>2021-08-30T09:09:15Z</time>
      </trkpt>
      <trkpt lat="44.41879" lon="6.76427">
        <ele>1422.9</ele>
        <time>2021-08-30T09:09:19Z</time>
      </trkpt>
      <trkpt lat="44.41878" lon="6.7643">
        <ele>1422.6</ele>
        <time>2021-08-30T09:09:27Z</time>
      </trkpt>
      <trkpt lat="44.41874" lon="6.76435">
        <ele>1420.8</ele>
        <time>2021-08-30T09:09:31Z</time>
      </trkpt>
      <trkpt lat="44.41869" lon="6.76442">
        <ele>1418.3</ele>
        <time>2021-08-30T09:09:35Z</time>
      </trkpt>
      <trkpt lat="44.41868" lon="6.76451">
        <ele>1418.5</ele>
        <time>2021-08-30T09:09:39Z</time>
      </trkpt>
      <trkpt lat="44.41865" lon="6.7646">
        <ele>1417.2</ele>
        <time>2021-08-30T09:09:43Z</time>
      </trkpt>
      <trkpt lat="44.4186" lon="6.76467">
        <ele>1414.3</ele>
        <time>2021-08-30T09:09:47Z</time>
      </trkpt>
      <trkpt lat="44.41856" lon="6.76477">
        <ele>1412.1</ele>
        <time>2021-08-30T09:09:51Z</time>
      </trkpt>
      <trkpt lat="44.41852" lon="6.76484">
        <ele>1409.6</ele>
        <time>2021-08-30T09:09:55Z</time>
      </trkpt>
      <trkpt lat="44.41844" lon="6.76492">
        <ele>1404</ele>
        <time>2021-08-30T09:09:59Z</time>
      </trkpt>
      <trkpt lat="44.41844" lon="6.76503">
        <ele>1404.4</ele>
        <time>2021-08-30T09:10:03Z</time>
      </trkpt>
      <trkpt lat="44.41845" lon="6.76514">
        <ele>1406</ele>
        <time>2021-08-30T09:10:07Z</time>
      </trkpt>
      <trkpt lat="44.4184" lon="6.76523">
        <ele>1402.6</ele>
        <time>2021-08-30T09:10:11Z</time>
      </trkpt>
      <trkpt lat="44.41838" lon="6.76536">
        <ele>1401.7</ele>
        <time>2021-08-30T09:10:15Z</time>
      </trkpt>
      <trkpt lat="44.41835" lon="6.76552">
        <ele>1400</ele>
        <time>2021-08-30T09:10:19Z</time>
      </trkpt>
      <trkpt lat="44.41834" lon="6.76568">
        <ele>1399.9</ele>
        <time>2021-08-30T09:10:23Z</time>
      </trkpt>
      <trkpt lat="44.41832" lon="6.76585">
        <ele>1400.1</ele>
        <time>2021-08-30T09:10:27Z</time>
      </trkpt>
      <trkpt lat="44.41831" lon="6.76599">
        <ele>1402.5</ele>
        <time>2021-08-30T09:10:31Z</time>
      </trkpt>
      <trkpt lat="44.41831" lon="6.76613">
        <ele>1405</ele>
        <time>2021-08-30T09:10:35Z</time>
      </trkpt>
      <trkpt lat="44.4183" lon="6.76628">
        <ele>1407.5</ele>
        <time>2021-08-30T09:10:39Z</time>
      </trkpt>
      <trkpt lat="44.4183" lon="6.76647">
        <ele>1410.9</ele>
        <time>2021-08-30T09:10:43Z</time>
      </trkpt>
      <trkpt lat="44.41833" lon="6.76657">
        <ele>1413.2</ele>
        <time>2021-08-30T09:10:47Z</time>
      </trkpt>
      <trkpt lat="44.41834" lon="6.76661">
        <ele>1414.6</ele>
        <time>2021-08-30T09:10:51Z</time>
      </trkpt>
      <trkpt lat="44.4183" lon="6.7667">
        <ele>1415</ele>
        <time>2021-08-30T09:10:59Z</time>
      </trkpt>
      <trkpt lat="44.41831" lon="6.76673">
        <ele>1415.6</ele>
        <time>2021-08-30T09:11:03Z</time>
      </trkpt>
      <trkpt lat="44.41832" lon="6.76678">
        <ele>1416.5</ele>
        <time>2021-08-30T09:11:07Z</time>
      </trkpt>
      <trkpt lat="44.41833" lon="6.76684">
        <ele>1417.6</ele>
        <time>2021-08-30T09:11:11Z</time>
      </trkpt>
      <trkpt lat="44.41834" lon="6.76688">
        <ele>1418.9</ele>
        <time>2021-08-30T09:11:15Z</time>
      </trkpt>
      <trkpt lat="44.41834" lon="6.76695">
        <ele>1420</ele>
        <time>2021-08-30T09:11:19Z</time>
      </trkpt>
      <trkpt lat="44.41835" lon="6.76703">
        <ele>1422</ele>
        <time>2021-08-30T09:11:23Z</time>
      </trkpt>
      <trkpt lat="44.41835" lon="6.76716">
        <ele>1424</ele>
        <time>2021-08-30T09:11:27Z</time>
      </trkpt>
      <trkpt lat="44.41836" lon="6.76726">
        <ele>1426.2</ele>
        <time>2021-08-30T09:11:31Z</time>
      </trkpt>
      <trkpt lat="44.41835" lon="6.76738">
        <ele>1427.3</ele>
        <time>2021-08-30T09:11:35Z</time>
      </trkpt>
      <trkpt lat="44.41838" lon="6.76752">
        <ele>1431.2</ele>
        <time>2021-08-30T09:11:39Z</time>
      </trkpt>
      <trkpt lat="44.41841" lon="6.76765">
        <ele>1432.9</ele>
        <time>2021-08-30T09:11:43Z</time>
      </trkpt>
      <trkpt lat="44.41845" lon="6.76778">
        <ele>1435.4</ele>
        <time>2021-08-30T09:11:47Z</time>
      </trkpt>
      <trkpt lat="44.41846" lon="6.76793">
        <ele>1435.6</ele>
        <time>2021-08-30T09:11:51Z</time>
      </trkpt>
      <trkpt lat="44.41845" lon="6.76807">
        <ele>1434.6</ele>
        <time>2021-08-30T09:11:55Z</time>
      </trkpt>
      <trkpt lat="44.41842" lon="6.76821">
        <ele>1432.2</ele>
        <time>2021-08-30T09:12:07Z</time>
      </trkpt>
      <trkpt lat="44.41841" lon="6.76826">
        <ele>1431.3</ele>
        <time>2021-08-30T09:12:15Z</time>
      </trkpt>
      <trkpt lat="44.41843" lon="6.76832">
        <ele>1432.5</ele>
        <time>2021-08-30T09:12:19Z</time>
      </trkpt>
      <trkpt lat="44.41846" lon="6.76839">
        <ele>1434.2</ele>
        <time>2021-08-30T09:12:23Z</time>
      </trkpt>
      <trkpt lat="44.41846" lon="6.76849">
        <ele>1433.7</ele>
        <time>2021-08-30T09:12:27Z</time>
      </trkpt>
      <trkpt lat="44.41848" lon="6.76864">
        <ele>1434.1</ele>
        <time>2021-08-30T09:12:39Z</time>
      </trkpt>
      <trkpt lat="44.4185" lon="6.76868">
        <ele>1435.1</ele>
        <time>2021-08-30T09:12:43Z</time>
      </trkpt>
      <trkpt lat="44.41851" lon="6.76876">
        <ele>1435.3</ele>
        <time>2021-08-30T09:12:47Z</time>
      </trkpt>
      <trkpt lat="44.41853" lon="6.76886">
        <ele>1435.8</ele>
        <time>2021-08-30T09:12:51Z</time>
      </trkpt>
      <trkpt lat="44.41857" lon="6.76895">
        <ele>1437.6</ele>
        <time>2021-08-30T09:12:55Z</time>
      </trkpt>
      <trkpt lat="44.41859" lon="6.769">
        <ele>1438.4</ele>
        <time>2021-08-30T09:12:59Z</time>
      </trkpt>
      <trkpt lat="44.41862" lon="6.76903">
        <ele>1439.9</ele>
        <time>2021-08-30T09:13:07Z</time>
      </trkpt>
      <trkpt lat="44.41862" lon="6.76907">
        <ele>1439.6</ele>
        <time>2021-08-30T09:13:11Z</time>
      </trkpt>
      <trkpt lat="44.4186" lon="6.7691">
        <ele>1438.2</ele>
        <time>2021-08-30T09:13:15Z</time>
      </trkpt>
      <trkpt lat="44.41859" lon="6.76913">
        <ele>1437.4</ele>
        <time>2021-08-30T09:13:19Z</time>
      </trkpt>
      <trkpt lat="44.41857" lon="6.76917">
        <ele>1436.1</ele>
        <time>2021-08-30T09:13:27Z</time>
      </trkpt>
      <trkpt lat="44.41853" lon="6.76921">
        <ele>1433.8</ele>
        <time>2021-08-30T09:13:31Z</time>
      </trkpt>
      <trkpt lat="44.41851" lon="6.7693">
        <ele>1432.5</ele>
        <time>2021-08-30T09:13:35Z</time>
      </trkpt>
      <trkpt lat="44.41851" lon="6.76938">
        <ele>1432.3</ele>
        <time>2021-08-30T09:13:39Z</time>
      </trkpt>
      <trkpt lat="44.41853" lon="6.76947">
        <ele>1433.3</ele>
        <time>2021-08-30T09:13:43Z</time>
      </trkpt>
      <trkpt lat="44.41853" lon="6.76957">
        <ele>1433.1</ele>
        <time>2021-08-30T09:13:47Z</time>
      </trkpt>
      <trkpt lat="44.41853" lon="6.7697">
        <ele>1432.9</ele>
        <time>2021-08-30T09:13:51Z</time>
      </trkpt>
      <trkpt lat="44.41851" lon="6.76985">
        <ele>1431.5</ele>
        <time>2021-08-30T09:13:55Z</time>
      </trkpt>
      <trkpt lat="44.41851" lon="6.76999">
        <ele>1431.2</ele>
        <time>2021-08-30T09:13:59Z</time>
      </trkpt>
      <trkpt lat="44.41852" lon="6.77011">
        <ele>1432.5</ele>
        <time>2021-08-30T09:14:03Z</time>
      </trkpt>
      <trkpt lat="44.41848" lon="6.77026">
        <ele>1431.2</ele>
        <time>2021-08-30T09:14:07Z</time>
      </trkpt>
      <trkpt lat="44.4185" lon="6.77039">
        <ele>1433.2</ele>
        <time>2021-08-30T09:14:11Z</time>
      </trkpt>
      <trkpt lat="44.41849" lon="6.77053">
        <ele>1433.6</ele>
        <time>2021-08-30T09:14:15Z</time>
      </trkpt>
      <trkpt lat="44.41852" lon="6.77064">
        <ele>1435.9</ele>
        <time>2021-08-30T09:14:19Z</time>
      </trkpt>
      <trkpt lat="44.41852" lon="6.77078">
        <ele>1436.8</ele>
        <time>2021-08-30T09:14:23Z</time>
      </trkpt>
      <trkpt lat="44.41851" lon="6.77086">
        <ele>1436.9</ele>
        <time>2021-08-30T09:14:27Z</time>
      </trkpt>
      <trkpt lat="44.41862" lon="6.77101">
        <ele>1443.3</ele>
        <time>2021-08-30T09:14:35Z</time>
      </trkpt>
      <trkpt lat="44.41862" lon="6.77106">
        <ele>1443.6</ele>
        <time>2021-08-30T09:14:39Z</time>
      </trkpt>
      <trkpt lat="44.41862" lon="6.77109">
        <ele>1443.8</ele>
        <time>2021-08-30T09:14:47Z</time>
      </trkpt>
      <trkpt lat="44.41863" lon="6.77113">
        <ele>1444.6</ele>
        <time>2021-08-30T09:14:51Z</time>
      </trkpt>
      <trkpt lat="44.41864" lon="6.77117">
        <ele>1445.4</ele>
        <time>2021-08-30T09:14:55Z</time>
      </trkpt>
      <trkpt lat="44.41866" lon="6.77123">
        <ele>1446.7</ele>
        <time>2021-08-30T09:15:07Z</time>
      </trkpt>
      <trkpt lat="44.41867" lon="6.77127">
        <ele>1447.5</ele>
        <time>2021-08-30T09:15:11Z</time>
      </trkpt>
      <trkpt lat="44.41867" lon="6.77132">
        <ele>1447.8</ele>
        <time>2021-08-30T09:15:23Z</time>
      </trkpt>
      <trkpt lat="44.41868" lon="6.77135">
        <ele>1448.5</ele>
        <time>2021-08-30T09:15:27Z</time>
      </trkpt>
      <trkpt lat="44.41868" lon="6.77138">
        <ele>1448.7</ele>
        <time>2021-08-30T09:15:31Z</time>
      </trkpt>
      <trkpt lat="44.41872" lon="6.77145">
        <ele>1451.1</ele>
        <time>2021-08-30T09:15:39Z</time>
      </trkpt>
      <trkpt lat="44.41872" lon="6.7715">
        <ele>1451.5</ele>
        <time>2021-08-30T09:15:43Z</time>
      </trkpt>
      <trkpt lat="44.41873" lon="6.77154">
        <ele>1452.2</ele>
        <time>2021-08-30T09:15:47Z</time>
      </trkpt>
      <trkpt lat="44.41875" lon="6.77162">
        <ele>1453.7</ele>
        <time>2021-08-30T09:15:51Z</time>
      </trkpt>
      <trkpt lat="44.41877" lon="6.77167">
        <ele>1455</ele>
        <time>2021-08-30T09:15:55Z</time>
      </trkpt>
      <trkpt lat="44.41879" lon="6.77176">
        <ele>1456.8</ele>
        <time>2021-08-30T09:15:59Z</time>
      </trkpt>
      <trkpt lat="44.41876" lon="6.77184">
        <ele>1456.1</ele>
        <time>2021-08-30T09:16:03Z</time>
      </trkpt>
      <trkpt lat="44.41875" lon="6.77191">
        <ele>1456.2</ele>
        <time>2021-08-30T09:16:07Z</time>
      </trkpt>
      <trkpt lat="44.41873" lon="6.77199">
        <ele>1455.9</ele>
        <time>2021-08-30T09:16:11Z</time>
      </trkpt>
      <trkpt lat="44.41875" lon="6.77206">
        <ele>1457.5</ele>
        <time>2021-08-30T09:16:15Z</time>
      </trkpt>
      <trkpt lat="44.41876" lon="6.77215">
        <ele>1458.9</ele>
        <time>2021-08-30T09:16:19Z</time>
      </trkpt>
      <trkpt lat="44.41875" lon="6.77223">
        <ele>1459.1</ele>
        <time>2021-08-30T09:16:23Z</time>
      </trkpt>
      <trkpt lat="44.41873" lon="6.77231">
        <ele>1458.7</ele>
        <time>2021-08-30T09:16:27Z</time>
      </trkpt>
      <trkpt lat="44.41874" lon="6.77236">
        <ele>1459.7</ele>
        <time>2021-08-30T09:16:31Z</time>
      </trkpt>
      <trkpt lat="44.41874" lon="6.77242">
        <ele>1460.2</ele>
        <time>2021-08-30T09:16:35Z</time>
      </trkpt>
      <trkpt lat="44.4187" lon="6.77252">
        <ele>1459.1</ele>
        <time>2021-08-30T09:16:43Z</time>
      </trkpt>
      <trkpt lat="44.41864" lon="6.77262">
        <ele>1457.2</ele>
        <time>2021-08-30T09:16:47Z</time>
      </trkpt>
      <trkpt lat="44.4186" lon="6.77275">
        <ele>1456.7</ele>
        <time>2021-08-30T09:16:51Z</time>
      </trkpt>
      <trkpt lat="44.41857" lon="6.77285">
        <ele>1456.3</ele>
        <time>2021-08-30T09:16:55Z</time>
      </trkpt>
      <trkpt lat="44.41851" lon="6.77303">
        <ele>1455.3</ele>
        <time>2021-08-30T09:17:03Z</time>
      </trkpt>
      <trkpt lat="44.41852" lon="6.77309">
        <ele>1456.6</ele>
        <time>2021-08-30T09:17:07Z</time>
      </trkpt>
      <trkpt lat="44.41852" lon="6.77316">
        <ele>1457.5</ele>
        <time>2021-08-30T09:17:11Z</time>
      </trkpt>
      <trkpt lat="44.41852" lon="6.77323">
        <ele>1458.4</ele>
        <time>2021-08-30T09:17:15Z</time>
      </trkpt>
      <trkpt lat="44.41848" lon="6.77331">
        <ele>1457.2</ele>
        <time>2021-08-30T09:17:19Z</time>
      </trkpt>
      <trkpt lat="44.41845" lon="6.77342">
        <ele>1456.5</ele>
        <time>2021-08-30T09:17:23Z</time>
      </trkpt>
      <trkpt lat="44.41844" lon="6.77351">
        <ele>1456.7</ele>
        <time>2021-08-30T09:17:27Z</time>
      </trkpt>
      <trkpt lat="44.41842" lon="6.77366">
        <ele>1456.9</ele>
        <time>2021-08-30T09:17:31Z</time>
      </trkpt>
      <trkpt lat="44.4184" lon="6.77379">
        <ele>1456.8</ele>
        <time>2021-08-30T09:17:35Z</time>
      </trkpt>
      <trkpt lat="44.41842" lon="6.77389">
        <ele>1458.9</ele>
        <time>2021-08-30T09:17:39Z</time>
      </trkpt>
      <trkpt lat="44.41841" lon="6.77399">
        <ele>1459.1</ele>
        <time>2021-08-30T09:17:43Z</time>
      </trkpt>
      <trkpt lat="44.41841" lon="6.7741">
        <ele>1460.1</ele>
        <time>2021-08-30T09:17:47Z</time>
      </trkpt>
      <trkpt lat="44.41838" lon="6.7742">
        <ele>1458.9</ele>
        <time>2021-08-30T09:17:51Z</time>
      </trkpt>
      <trkpt lat="44.41836" lon="6.77431">
        <ele>1457.9</ele>
        <time>2021-08-30T09:17:55Z</time>
      </trkpt>
      <trkpt lat="44.41837" lon="6.77441">
        <ele>1458.8</ele>
        <time>2021-08-30T09:17:59Z</time>
      </trkpt>
      <trkpt lat="44.41837" lon="6.77452">
        <ele>1459</ele>
        <time>2021-08-30T09:18:03Z</time>
      </trkpt>
      <trkpt lat="44.41843" lon="6.77463">
        <ele>1462.7</ele>
        <time>2021-08-30T09:18:07Z</time>
      </trkpt>
      <trkpt lat="44.41844" lon="6.77472">
        <ele>1463.4</ele>
        <time>2021-08-30T09:18:11Z</time>
      </trkpt>
      <trkpt lat="44.41843" lon="6.77483">
        <ele>1463</ele>
        <time>2021-08-30T09:18:15Z</time>
      </trkpt>
      <trkpt lat="44.4184" lon="6.77493">
        <ele>1461.5</ele>
        <time>2021-08-30T09:18:19Z</time>
      </trkpt>
      <trkpt lat="44.41844" lon="6.77513">
        <ele>1464.1</ele>
        <time>2021-08-30T09:18:31Z</time>
      </trkpt>
      <trkpt lat="44.41842" lon="6.77518">
        <ele>1463</ele>
        <time>2021-08-30T09:18:35Z</time>
      </trkpt>
      <trkpt lat="44.41841" lon="6.77522">
        <ele>1462.5</ele>
        <time>2021-08-30T09:18:39Z</time>
      </trkpt>
      <trkpt lat="44.4184" lon="6.77532">
        <ele>1462</ele>
        <time>2021-08-30T09:18:43Z</time>
      </trkpt>
      <trkpt lat="44.41842" lon="6.77541">
        <ele>1463.3</ele>
        <time>2021-08-30T09:18:47Z</time>
      </trkpt>
      <trkpt lat="44.41844" lon="6.77548">
        <ele>1464.7</ele>
        <time>2021-08-30T09:18:51Z</time>
      </trkpt>
      <trkpt lat="44.41847" lon="6.77556">
        <ele>1466.8</ele>
        <time>2021-08-30T09:18:55Z</time>
      </trkpt>
      <trkpt lat="44.41842" lon="6.7757">
        <ele>1463.7</ele>
        <time>2021-08-30T09:18:59Z</time>
      </trkpt>
      <trkpt lat="44.41837" lon="6.77585">
        <ele>1460.9</ele>
        <time>2021-08-30T09:19:03Z</time>
      </trkpt>
      <trkpt lat="44.41831" lon="6.776">
        <ele>1462.2</ele>
        <time>2021-08-30T09:19:07Z</time>
      </trkpt>
      <trkpt lat="44.41825" lon="6.77611">
        <ele>1464.7</ele>
        <time>2021-08-30T09:19:11Z</time>
      </trkpt>
      <trkpt lat="44.41819" lon="6.77623">
        <ele>1466.9</ele>
        <time>2021-08-30T09:19:15Z</time>
      </trkpt>
      <trkpt lat="44.41812" lon="6.77634">
        <ele>1468.3</ele>
        <time>2021-08-30T09:19:19Z</time>
      </trkpt>
      <trkpt lat="44.41808" lon="6.77645">
        <ele>1469.5</ele>
        <time>2021-08-30T09:19:23Z</time>
      </trkpt>
      <trkpt lat="44.41806" lon="6.77657">
        <ele>1471</ele>
        <time>2021-08-30T09:19:27Z</time>
      </trkpt>
      <trkpt lat="44.41802" lon="6.77667">
        <ele>1471.5</ele>
        <time>2021-08-30T09:19:31Z</time>
      </trkpt>
      <trkpt lat="44.41797" lon="6.77679">
        <ele>1472.5</ele>
        <time>2021-08-30T09:19:35Z</time>
      </trkpt>
      <trkpt lat="44.41792" lon="6.77689">
        <ele>1472.7</ele>
        <time>2021-08-30T09:19:39Z</time>
      </trkpt>
      <trkpt lat="44.41788" lon="6.77702">
        <ele>1473.4</ele>
        <time>2021-08-30T09:19:43Z</time>
      </trkpt>
      <trkpt lat="44.41786" lon="6.77714">
        <ele>1474.3</ele>
        <time>2021-08-30T09:19:47Z</time>
      </trkpt>
      <trkpt lat="44.41783" lon="6.77728">
        <ele>1474.9</ele>
        <time>2021-08-30T09:19:51Z</time>
      </trkpt>
      <trkpt lat="44.41777" lon="6.77744">
        <ele>1473.9</ele>
        <time>2021-08-30T09:19:55Z</time>
      </trkpt>
      <trkpt lat="44.41771" lon="6.7776">
        <ele>1472.1</ele>
        <time>2021-08-30T09:19:59Z</time>
      </trkpt>
      <trkpt lat="44.41768" lon="6.77773">
        <ele>1471.4</ele>
        <time>2021-08-30T09:20:03Z</time>
      </trkpt>
      <trkpt lat="44.41764" lon="6.7779">
        <ele>1470.5</ele>
        <time>2021-08-30T09:20:07Z</time>
      </trkpt>
      <trkpt lat="44.41759" lon="6.77789">
        <ele>1467.7</ele>
        <time>2021-08-30T09:20:11Z</time>
      </trkpt>
      <trkpt lat="44.41754" lon="6.77778">
        <ele>1464.2</ele>
        <time>2021-08-30T09:20:15Z</time>
      </trkpt>
      <trkpt lat="44.41751" lon="6.77759">
        <ele>1461.2</ele>
        <time>2021-08-30T09:20:19Z</time>
      </trkpt>
      <trkpt lat="44.41742" lon="6.77732">
        <ele>1464</ele>
        <time>2021-08-30T09:20:23Z</time>
      </trkpt>
      <trkpt lat="44.41738" lon="6.77713">
        <ele>1466.2</ele>
        <time>2021-08-30T09:20:27Z</time>
      </trkpt>
      <trkpt lat="44.41738" lon="6.77703">
        <ele>1466.2</ele>
        <time>2021-08-30T09:20:31Z</time>
      </trkpt>
      <trkpt lat="44.41739" lon="6.77691">
        <ele>1465.7</ele>
        <time>2021-08-30T09:20:35Z</time>
      </trkpt>
      <trkpt lat="44.41739" lon="6.77681">
        <ele>1465.7</ele>
        <time>2021-08-30T09:20:39Z</time>
      </trkpt>
      <trkpt lat="44.4174" lon="6.77674">
        <ele>1465.1</ele>
        <time>2021-08-30T09:20:43Z</time>
      </trkpt>
      <trkpt lat="44.41739" lon="6.77667">
        <ele>1465.7</ele>
        <time>2021-08-30T09:20:47Z</time>
      </trkpt>
      <trkpt lat="44.41739" lon="6.7766">
        <ele>1466.2</ele>
        <time>2021-08-30T09:20:51Z</time>
      </trkpt>
      <trkpt lat="44.41739" lon="6.77653">
        <ele>1466.6</ele>
        <time>2021-08-30T09:20:55Z</time>
      </trkpt>
      <trkpt lat="44.4174" lon="6.77646">
        <ele>1466.4</ele>
        <time>2021-08-30T09:20:59Z</time>
      </trkpt>
      <trkpt lat="44.4174" lon="6.77638">
        <ele>1466.9</ele>
        <time>2021-08-30T09:21:03Z</time>
      </trkpt>
      <trkpt lat="44.41742" lon="6.7763">
        <ele>1466.2</ele>
        <time>2021-08-30T09:21:07Z</time>
      </trkpt>
      <trkpt lat="44.41745" lon="6.77622">
        <ele>1464.8</ele>
        <time>2021-08-30T09:21:11Z</time>
      </trkpt>
      <trkpt lat="44.41747" lon="6.77616">
        <ele>1463.9</ele>
        <time>2021-08-30T09:24:07Z</time>
      </trkpt>
      <trkpt lat="44.41748" lon="6.7761">
        <ele>1463.7</ele>
        <time>2021-08-30T09:24:11Z</time>
      </trkpt>
      <trkpt lat="44.4175" lon="6.77602">
        <ele>1462.9</ele>
        <time>2021-08-30T09:24:15Z</time>
      </trkpt>
      <trkpt lat="44.41752" lon="6.77594">
        <ele>1463.3</ele>
        <time>2021-08-30T09:24:19Z</time>
      </trkpt>
      <trkpt lat="44.41754" lon="6.77586">
        <ele>1463.6</ele>
        <time>2021-08-30T09:24:23Z</time>
      </trkpt>
      <trkpt lat="44.41756" lon="6.77578">
        <ele>1463.2</ele>
        <time>2021-08-30T09:24:27Z</time>
      </trkpt>
      <trkpt lat="44.41756" lon="6.77572">
        <ele>1462.8</ele>
        <time>2021-08-30T09:24:31Z</time>
      </trkpt>
      <trkpt lat="44.41757" lon="6.77563">
        <ele>1462.2</ele>
        <time>2021-08-30T09:24:35Z</time>
      </trkpt>
      <trkpt lat="44.41758" lon="6.77556">
        <ele>1461.6</ele>
        <time>2021-08-30T09:24:39Z</time>
      </trkpt>
      <trkpt lat="44.41757" lon="6.77549">
        <ele>1461.2</ele>
        <time>2021-08-30T09:24:43Z</time>
      </trkpt>
      <trkpt lat="44.41753" lon="6.77544">
        <ele>1461.1</ele>
        <time>2021-08-30T09:24:47Z</time>
      </trkpt>
      <trkpt lat="44.41751" lon="6.77536">
        <ele>1460.6</ele>
        <time>2021-08-30T09:24:51Z</time>
      </trkpt>
      <trkpt lat="44.41744" lon="6.77524">
        <ele>1463.7</ele>
        <time>2021-08-30T09:24:55Z</time>
      </trkpt>
      <trkpt lat="44.41739" lon="6.77516">
        <ele>1466.6</ele>
        <time>2021-08-30T09:24:59Z</time>
      </trkpt>
      <trkpt lat="44.41738" lon="6.77502">
        <ele>1466.3</ele>
        <time>2021-08-30T09:25:03Z</time>
      </trkpt>
      <trkpt lat="44.41736" lon="6.77488">
        <ele>1467.4</ele>
        <time>2021-08-30T09:25:07Z</time>
      </trkpt>
      <trkpt lat="44.41734" lon="6.77477">
        <ele>1468.6</ele>
        <time>2021-08-30T09:25:11Z</time>
      </trkpt>
      <trkpt lat="44.41734" lon="6.77467">
        <ele>1468.4</ele>
        <time>2021-08-30T09:25:15Z</time>
      </trkpt>
      <trkpt lat="44.41734" lon="6.77457">
        <ele>1468.3</ele>
        <time>2021-08-30T09:25:19Z</time>
      </trkpt>
      <trkpt lat="44.41733" lon="6.77449">
        <ele>1468.7</ele>
        <time>2021-08-30T09:25:23Z</time>
      </trkpt>
      <trkpt lat="44.41732" lon="6.77441">
        <ele>1469.2</ele>
        <time>2021-08-30T09:25:27Z</time>
      </trkpt>
      <trkpt lat="44.41731" lon="6.77433">
        <ele>1469.6</ele>
        <time>2021-08-30T09:25:31Z</time>
      </trkpt>
      <trkpt lat="44.41731" lon="6.77424">
        <ele>1469.4</ele>
        <time>2021-08-30T09:25:35Z</time>
      </trkpt>
      <trkpt lat="44.41731" lon="6.77416">
        <ele>1469.2</ele>
        <time>2021-08-30T09:25:39Z</time>
      </trkpt>
      <trkpt lat="44.41729" lon="6.77408">
        <ele>1469.3</ele>
        <time>2021-08-30T09:25:43Z</time>
      </trkpt>
      <trkpt lat="44.41729" lon="6.77399">
        <ele>1468.2</ele>
        <time>2021-08-30T09:25:47Z</time>
      </trkpt>
      <trkpt lat="44.41727" lon="6.77392">
        <ele>1468.4</ele>
        <time>2021-08-30T09:25:51Z</time>
      </trkpt>
      <trkpt lat="44.41725" lon="6.77385">
        <ele>1468.6</ele>
        <time>2021-08-30T09:25:55Z</time>
      </trkpt>
      <trkpt lat="44.41722" lon="6.77376">
        <ele>1469.1</ele>
        <time>2021-08-30T09:25:59Z</time>
      </trkpt>
      <trkpt lat="44.41719" lon="6.77368">
        <ele>1469.7</ele>
        <time>2021-08-30T09:26:03Z</time>
      </trkpt>
      <trkpt lat="44.41716" lon="6.77362">
        <ele>1470.5</ele>
        <time>2021-08-30T09:26:07Z</time>
      </trkpt>
      <trkpt lat="44.41714" lon="6.7735">
        <ele>1470.1</ele>
        <time>2021-08-30T09:26:11Z</time>
      </trkpt>
      <trkpt lat="44.41715" lon="6.77338">
        <ele>1468.1</ele>
        <time>2021-08-30T09:26:15Z</time>
      </trkpt>
      <trkpt lat="44.41715" lon="6.77328">
        <ele>1467.3</ele>
        <time>2021-08-30T09:26:19Z</time>
      </trkpt>
      <trkpt lat="44.41713" lon="6.77316">
        <ele>1467.9</ele>
        <time>2021-08-30T09:26:23Z</time>
      </trkpt>
      <trkpt lat="44.41709" lon="6.77304">
        <ele>1469.7</ele>
        <time>2021-08-30T09:26:27Z</time>
      </trkpt>
      <trkpt lat="44.41703" lon="6.7729">
        <ele>1472.9</ele>
        <time>2021-08-30T09:26:31Z</time>
      </trkpt>
      <trkpt lat="44.41698" lon="6.77274">
        <ele>1475.8</ele>
        <time>2021-08-30T09:26:35Z</time>
      </trkpt>
      <trkpt lat="44.41694" lon="6.77262">
        <ele>1478.3</ele>
        <time>2021-08-30T09:26:39Z</time>
      </trkpt>
      <trkpt lat="44.41694" lon="6.7725">
        <ele>1478.3</ele>
        <time>2021-08-30T09:26:43Z</time>
      </trkpt>
      <trkpt lat="44.41695" lon="6.77232">
        <ele>1476.8</ele>
        <time>2021-08-30T09:26:47Z</time>
      </trkpt>
      <trkpt lat="44.41691" lon="6.77218">
        <ele>1478.9</ele>
        <time>2021-08-30T09:26:51Z</time>
      </trkpt>
      <trkpt lat="44.41687" lon="6.77202">
        <ele>1480.9</ele>
        <time>2021-08-30T09:26:55Z</time>
      </trkpt>
      <trkpt lat="44.41682" lon="6.77191">
        <ele>1484</ele>
        <time>2021-08-30T09:26:59Z</time>
      </trkpt>
      <trkpt lat="44.41676" lon="6.77179">
        <ele>1487.8</ele>
        <time>2021-08-30T09:27:03Z</time>
      </trkpt>
      <trkpt lat="44.41671" lon="6.77167">
        <ele>1490.9</ele>
        <time>2021-08-30T09:27:07Z</time>
      </trkpt>
      <trkpt lat="44.41668" lon="6.77156">
        <ele>1491.9</ele>
        <time>2021-08-30T09:27:11Z</time>
      </trkpt>
      <trkpt lat="44.41666" lon="6.77145">
        <ele>1491.9</ele>
        <time>2021-08-30T09:27:15Z</time>
      </trkpt>
      <trkpt lat="44.41663" lon="6.77135">
        <ele>1492</ele>
        <time>2021-08-30T09:27:19Z</time>
      </trkpt>
      <trkpt lat="44.41659" lon="6.77125">
        <ele>1492.6</ele>
        <time>2021-08-30T09:27:23Z</time>
      </trkpt>
      <trkpt lat="44.41656" lon="6.77117">
        <ele>1492.9</ele>
        <time>2021-08-30T09:27:27Z</time>
      </trkpt>
      <trkpt lat="44.41651" lon="6.77112">
        <ele>1494.4</ele>
        <time>2021-08-30T09:30:27Z</time>
      </trkpt>
      <trkpt lat="44.41652" lon="6.77104">
        <ele>1493.2</ele>
        <time>2021-08-30T09:30:31Z</time>
      </trkpt>
      <trkpt lat="44.41653" lon="6.77083">
        <ele>1490.6</ele>
        <time>2021-08-30T09:30:35Z</time>
      </trkpt>
      <trkpt lat="44.41653" lon="6.77062">
        <ele>1489</ele>
        <time>2021-08-30T09:30:39Z</time>
      </trkpt>
      <trkpt lat="44.41652" lon="6.77038">
        <ele>1487.7</ele>
        <time>2021-08-30T09:30:43Z</time>
      </trkpt>
      <trkpt lat="44.41657" lon="6.77009">
        <ele>1483.9</ele>
        <time>2021-08-30T09:30:47Z</time>
      </trkpt>
      <trkpt lat="44.41663" lon="6.76981">
        <ele>1477.4</ele>
        <time>2021-08-30T09:30:51Z</time>
      </trkpt>
      <trkpt lat="44.41661" lon="6.76954">
        <ele>1472.8</ele>
        <time>2021-08-30T09:30:55Z</time>
      </trkpt>
      <trkpt lat="44.41651" lon="6.76926">
        <ele>1471.3</ele>
        <time>2021-08-30T09:30:59Z</time>
      </trkpt>
      <trkpt lat="44.41639" lon="6.76895">
        <ele>1471.2</ele>
        <time>2021-08-30T09:31:03Z</time>
      </trkpt>
      <trkpt lat="44.41632" lon="6.76861">
        <ele>1468.8</ele>
        <time>2021-08-30T09:31:07Z</time>
      </trkpt>
      <trkpt lat="44.41624" lon="6.76828">
        <ele>1467.2</ele>
        <time>2021-08-30T09:31:11Z</time>
      </trkpt>
      <trkpt lat="44.41614" lon="6.76798">
        <ele>1466.7</ele>
        <time>2021-08-30T09:31:15Z</time>
      </trkpt>
      <trkpt lat="44.4161" lon="6.76764">
        <ele>1462.7</ele>
        <time>2021-08-30T09:31:19Z</time>
      </trkpt>
      <trkpt lat="44.41602" lon="6.76728">
        <ele>1459.7</ele>
        <time>2021-08-30T09:31:23Z</time>
      </trkpt>
      <trkpt lat="44.41597" lon="6.76697">
        <ele>1456.5</ele>
        <time>2021-08-30T09:31:27Z</time>
      </trkpt>
      <trkpt lat="44.41593" lon="6.76667">
        <ele>1452.8</ele>
        <time>2021-08-30T09:31:31Z</time>
      </trkpt>
      <trkpt lat="44.41583" lon="6.76649">
        <ele>1453.4</ele>
        <time>2021-08-30T09:31:35Z</time>
      </trkpt>
      <trkpt lat="44.41573" lon="6.76638">
        <ele>1454.2</ele>
        <time>2021-08-30T09:31:39Z</time>
      </trkpt>
      <trkpt lat="44.41564" lon="6.76624">
        <ele>1454.4</ele>
        <time>2021-08-30T09:31:43Z</time>
      </trkpt>
      <trkpt lat="44.41556" lon="6.76611">
        <ele>1454.2</ele>
        <time>2021-08-30T09:31:47Z</time>
      </trkpt>
      <trkpt lat="44.41546" lon="6.76604">
        <ele>1455</ele>
        <time>2021-08-30T09:31:51Z</time>
      </trkpt>
      <trkpt lat="44.41542" lon="6.766">
        <ele>1455.1</ele>
        <time>2021-08-30T09:31:55Z</time>
      </trkpt>
      <trkpt lat="44.41537" lon="6.76594">
        <ele>1455.1</ele>
        <time>2021-08-30T09:31:59Z</time>
      </trkpt>
      <trkpt lat="44.41533" lon="6.76589">
        <ele>1455</ele>
        <time>2021-08-30T09:32:03Z</time>
      </trkpt>
      <trkpt lat="44.4153" lon="6.76584">
        <ele>1454.8</ele>
        <time>2021-08-30T09:32:07Z</time>
      </trkpt>
      <trkpt lat="44.41525" lon="6.76578">
        <ele>1454.5</ele>
        <time>2021-08-30T09:32:11Z</time>
      </trkpt>
      <trkpt lat="44.41523" lon="6.76575">
        <ele>1454.3</ele>
        <time>2021-08-30T09:44:11Z</time>
      </trkpt>
      <trkpt lat="44.41527" lon="6.76581">
        <ele>1454.7</ele>
        <time>2021-08-30T09:44:15Z</time>
      </trkpt>
      <trkpt lat="44.41535" lon="6.76591">
        <ele>1455</ele>
        <time>2021-08-30T09:44:19Z</time>
      </trkpt>
      <trkpt lat="44.4155" lon="6.76601">
        <ele>1454</ele>
        <time>2021-08-30T09:44:23Z</time>
      </trkpt>
      <trkpt lat="44.41561" lon="6.76587">
        <ele>1450.6</ele>
        <time>2021-08-30T09:44:27Z</time>
      </trkpt>
      <trkpt lat="44.41569" lon="6.76563">
        <ele>1446.1</ele>
        <time>2021-08-30T09:44:31Z</time>
      </trkpt>
      <trkpt lat="44.41573" lon="6.76537">
        <ele>1441.7</ele>
        <time>2021-08-30T09:44:35Z</time>
      </trkpt>
      <trkpt lat="44.41565" lon="6.76517">
        <ele>1439.7</ele>
        <time>2021-08-30T09:44:39Z</time>
      </trkpt>
      <trkpt lat="44.41544" lon="6.76505">
        <ele>1440.5</ele>
        <time>2021-08-30T09:44:43Z</time>
      </trkpt>
      <trkpt lat="44.4152" lon="6.76499">
        <ele>1442.3</ele>
        <time>2021-08-30T09:44:47Z</time>
      </trkpt>
      <trkpt lat="44.41501" lon="6.76485">
        <ele>1441.3</ele>
        <time>2021-08-30T09:44:51Z</time>
      </trkpt>
      <trkpt lat="44.41486" lon="6.76483">
        <ele>1444.1</ele>
        <time>2021-08-30T09:44:55Z</time>
      </trkpt>
      <trkpt lat="44.41472" lon="6.76483">
        <ele>1447.2</ele>
        <time>2021-08-30T09:44:59Z</time>
      </trkpt>
      <trkpt lat="44.4146" lon="6.76482">
        <ele>1449.7</ele>
        <time>2021-08-30T09:45:03Z</time>
      </trkpt>
      <trkpt lat="44.41445" lon="6.76474">
        <ele>1451.5</ele>
        <time>2021-08-30T09:45:07Z</time>
      </trkpt>
      <trkpt lat="44.4143" lon="6.76455">
        <ele>1451.1</ele>
        <time>2021-08-30T09:45:11Z</time>
      </trkpt>
      <trkpt lat="44.41421" lon="6.76442">
        <ele>1450.8</ele>
        <time>2021-08-30T09:45:15Z</time>
      </trkpt>
      <trkpt lat="44.41416" lon="6.7643">
        <ele>1449.8</ele>
        <time>2021-08-30T09:45:19Z</time>
      </trkpt>
      <trkpt lat="44.41409" lon="6.76413">
        <ele>1448.6</ele>
        <time>2021-08-30T09:45:23Z</time>
      </trkpt>
      <trkpt lat="44.41401" lon="6.76397">
        <ele>1448.1</ele>
        <time>2021-08-30T09:45:27Z</time>
      </trkpt>
      <trkpt lat="44.41386" lon="6.7639">
        <ele>1451</ele>
        <time>2021-08-30T09:45:31Z</time>
      </trkpt>
      <trkpt lat="44.41376" lon="6.76387">
        <ele>1453.2</ele>
        <time>2021-08-30T09:45:35Z</time>
      </trkpt>
      <trkpt lat="44.41368" lon="6.76386">
        <ele>1455.2</ele>
        <time>2021-08-30T09:45:39Z</time>
      </trkpt>
      <trkpt lat="44.41359" lon="6.7639">
        <ele>1458.5</ele>
        <time>2021-08-30T09:45:43Z</time>
      </trkpt>
      <trkpt lat="44.41349" lon="6.76394">
        <ele>1462</ele>
        <time>2021-08-30T09:45:47Z</time>
      </trkpt>
      <trkpt lat="44.4134" lon="6.76386">
        <ele>1462.9</ele>
        <time>2021-08-30T09:45:51Z</time>
      </trkpt>
      <trkpt lat="44.41336" lon="6.76373">
        <ele>1461.4</ele>
        <time>2021-08-30T09:45:55Z</time>
      </trkpt>
      <trkpt lat="44.41328" lon="6.76363">
        <ele>1462.1</ele>
        <time>2021-08-30T09:45:59Z</time>
      </trkpt>
      <trkpt lat="44.41318" lon="6.76363">
        <ele>1465.9</ele>
        <time>2021-08-30T09:46:03Z</time>
      </trkpt>
      <trkpt lat="44.41308" lon="6.76363">
        <ele>1469.8</ele>
        <time>2021-08-30T09:46:07Z</time>
      </trkpt>
      <trkpt lat="44.41298" lon="6.76357">
        <ele>1472.5</ele>
        <time>2021-08-30T09:46:11Z</time>
      </trkpt>
      <trkpt lat="44.41293" lon="6.76342">
        <ele>1471.6</ele>
        <time>2021-08-30T09:46:15Z</time>
      </trkpt>
      <trkpt lat="44.41291" lon="6.76323">
        <ele>1469.1</ele>
        <time>2021-08-30T09:46:19Z</time>
      </trkpt>
      <trkpt lat="44.41288" lon="6.76304">
        <ele>1467.1</ele>
        <time>2021-08-30T09:46:23Z</time>
      </trkpt>
      <trkpt lat="44.41283" lon="6.76285">
        <ele>1465.8</ele>
        <time>2021-08-30T09:46:27Z</time>
      </trkpt>
      <trkpt lat="44.41281" lon="6.76268">
        <ele>1463.6</ele>
        <time>2021-08-30T09:46:31Z</time>
      </trkpt>
      <trkpt lat="44.41281" lon="6.76253">
        <ele>1461.1</ele>
        <time>2021-08-30T09:46:35Z</time>
      </trkpt>
      <trkpt lat="44.41279" lon="6.76238">
        <ele>1460</ele>
        <time>2021-08-30T09:46:39Z</time>
      </trkpt>
      <trkpt lat="44.41279" lon="6.76219">
        <ele>1458.1</ele>
        <time>2021-08-30T09:46:43Z</time>
      </trkpt>
      <trkpt lat="44.41279" lon="6.76198">
        <ele>1455.9</ele>
        <time>2021-08-30T09:46:47Z</time>
      </trkpt>
      <trkpt lat="44.41269" lon="6.76182">
        <ele>1456.7</ele>
        <time>2021-08-30T09:46:51Z</time>
      </trkpt>
      <trkpt lat="44.41256" lon="6.76175">
        <ele>1458.8</ele>
        <time>2021-08-30T09:46:55Z</time>
      </trkpt>
      <trkpt lat="44.41246" lon="6.76165">
        <ele>1459.2</ele>
        <time>2021-08-30T09:46:59Z</time>
      </trkpt>
      <trkpt lat="44.41241" lon="6.76148">
        <ele>1456.1</ele>
        <time>2021-08-30T09:47:03Z</time>
      </trkpt>
      <trkpt lat="44.41236" lon="6.76127">
        <ele>1452.2</ele>
        <time>2021-08-30T09:47:07Z</time>
      </trkpt>
      <trkpt lat="44.41226" lon="6.76115">
        <ele>1450.8</ele>
        <time>2021-08-30T09:47:11Z</time>
      </trkpt>
      <trkpt lat="44.41211" lon="6.76108">
        <ele>1451.1</ele>
        <time>2021-08-30T09:47:15Z</time>
      </trkpt>
      <trkpt lat="44.41198" lon="6.76095">
        <ele>1449.8</ele>
        <time>2021-08-30T09:47:19Z</time>
      </trkpt>
      <trkpt lat="44.41194" lon="6.76084">
        <ele>1447.9</ele>
        <time>2021-08-30T09:47:23Z</time>
      </trkpt>
      <trkpt lat="44.41198" lon="6.76086">
        <ele>1447.8</ele>
        <time>2021-08-30T09:47:27Z</time>
      </trkpt>
      <trkpt lat="44.41191" lon="6.76093">
        <ele>1450.3</ele>
        <time>2021-08-30T09:47:31Z</time>
      </trkpt>
      <trkpt lat="44.41181" lon="6.76105">
        <ele>1454.2</ele>
        <time>2021-08-30T09:47:35Z</time>
      </trkpt>
      <trkpt lat="44.41173" lon="6.76122">
        <ele>1459</ele>
        <time>2021-08-30T09:47:39Z</time>
      </trkpt>
      <trkpt lat="44.41164" lon="6.76136">
        <ele>1463</ele>
        <time>2021-08-30T09:47:43Z</time>
      </trkpt>
      <trkpt lat="44.41151" lon="6.76144">
        <ele>1464.5</ele>
        <time>2021-08-30T09:47:47Z</time>
      </trkpt>
      <trkpt lat="44.41137" lon="6.76145">
        <ele>1464.5</ele>
        <time>2021-08-30T09:47:51Z</time>
      </trkpt>
      <trkpt lat="44.41123" lon="6.76145">
        <ele>1464.2</ele>
        <time>2021-08-30T09:47:55Z</time>
      </trkpt>
      <trkpt lat="44.4111" lon="6.76147">
        <ele>1464.2</ele>
        <time>2021-08-30T09:47:59Z</time>
      </trkpt>
      <trkpt lat="44.41096" lon="6.76153">
        <ele>1464.7</ele>
        <time>2021-08-30T09:48:03Z</time>
      </trkpt>
      <trkpt lat="44.41085" lon="6.76143">
        <ele>1463.2</ele>
        <time>2021-08-30T09:48:07Z</time>
      </trkpt>
      <trkpt lat="44.41077" lon="6.76128">
        <ele>1462.6</ele>
        <time>2021-08-30T09:48:11Z</time>
      </trkpt>
      <trkpt lat="44.41069" lon="6.76116">
        <ele>1463</ele>
        <time>2021-08-30T09:48:15Z</time>
      </trkpt>
      <trkpt lat="44.41061" lon="6.76105">
        <ele>1463.7</ele>
        <time>2021-08-30T09:48:19Z</time>
      </trkpt>
      <trkpt lat="44.41053" lon="6.76093">
        <ele>1464.7</ele>
        <time>2021-08-30T09:48:23Z</time>
      </trkpt>
      <trkpt lat="44.41045" lon="6.76081">
        <ele>1466</ele>
        <time>2021-08-30T09:48:27Z</time>
      </trkpt>
      <trkpt lat="44.41037" lon="6.76072">
        <ele>1467.7</ele>
        <time>2021-08-30T09:48:31Z</time>
      </trkpt>
      <trkpt lat="44.41029" lon="6.76065">
        <ele>1469.7</ele>
        <time>2021-08-30T09:48:35Z</time>
      </trkpt>
      <trkpt lat="44.41021" lon="6.76052">
        <ele>1471.7</ele>
        <time>2021-08-30T09:48:39Z</time>
      </trkpt>
      <trkpt lat="44.41016" lon="6.7604">
        <ele>1473</ele>
        <time>2021-08-30T09:48:43Z</time>
      </trkpt>
      <trkpt lat="44.4101" lon="6.76029">
        <ele>1474.7</ele>
        <time>2021-08-30T09:48:47Z</time>
      </trkpt>
      <trkpt lat="44.41006" lon="6.76017">
        <ele>1476</ele>
        <time>2021-08-30T09:48:51Z</time>
      </trkpt>
      <trkpt lat="44.41003" lon="6.76004">
        <ele>1476.9</ele>
        <time>2021-08-30T09:48:55Z</time>
      </trkpt>
      <trkpt lat="44.40999" lon="6.7599">
        <ele>1477.5</ele>
        <time>2021-08-30T09:48:59Z</time>
      </trkpt>
      <trkpt lat="44.40996" lon="6.75976">
        <ele>1477.4</ele>
        <time>2021-08-30T09:49:03Z</time>
      </trkpt>
      <trkpt lat="44.40994" lon="6.75957">
        <ele>1476.3</ele>
        <time>2021-08-30T09:49:07Z</time>
      </trkpt>
      <trkpt lat="44.40988" lon="6.75938">
        <ele>1476.2</ele>
        <time>2021-08-30T09:49:11Z</time>
      </trkpt>
      <trkpt lat="44.40983" lon="6.7592">
        <ele>1475.7</ele>
        <time>2021-08-30T09:49:15Z</time>
      </trkpt>
      <trkpt lat="44.40977" lon="6.7591">
        <ele>1475.3</ele>
        <time>2021-08-30T09:49:19Z</time>
      </trkpt>
      <trkpt lat="44.40967" lon="6.759">
        <ele>1475.6</ele>
        <time>2021-08-30T09:49:23Z</time>
      </trkpt>
      <trkpt lat="44.40959" lon="6.75891">
        <ele>1475.6</ele>
        <time>2021-08-30T09:49:27Z</time>
      </trkpt>
      <trkpt lat="44.4095" lon="6.75882">
        <ele>1476</ele>
        <time>2021-08-30T09:49:31Z</time>
      </trkpt>
      <trkpt lat="44.40941" lon="6.75871">
        <ele>1476.1</ele>
        <time>2021-08-30T09:49:35Z</time>
      </trkpt>
      <trkpt lat="44.40931" lon="6.75861">
        <ele>1476.7</ele>
        <time>2021-08-30T09:49:39Z</time>
      </trkpt>
      <trkpt lat="44.40921" lon="6.75848">
        <ele>1476.8</ele>
        <time>2021-08-30T09:49:43Z</time>
      </trkpt>
      <trkpt lat="44.40912" lon="6.75832">
        <ele>1475.4</ele>
        <time>2021-08-30T09:49:47Z</time>
      </trkpt>
      <trkpt lat="44.40906" lon="6.75815">
        <ele>1473.6</ele>
        <time>2021-08-30T09:49:51Z</time>
      </trkpt>
      <trkpt lat="44.40902" lon="6.75794">
        <ele>1470.9</ele>
        <time>2021-08-30T09:49:55Z</time>
      </trkpt>
      <trkpt lat="44.40899" lon="6.75776">
        <ele>1468.6</ele>
        <time>2021-08-30T09:49:59Z</time>
      </trkpt>
      <trkpt lat="44.40895" lon="6.7576">
        <ele>1466.6</ele>
        <time>2021-08-30T09:50:03Z</time>
      </trkpt>
      <trkpt lat="44.40885" lon="6.75754">
        <ele>1466.7</ele>
        <time>2021-08-30T09:50:07Z</time>
      </trkpt>
      <trkpt lat="44.40871" lon="6.75753">
        <ele>1467.9</ele>
        <time>2021-08-30T09:50:11Z</time>
      </trkpt>
      <trkpt lat="44.40858" lon="6.75756">
        <ele>1469.6</ele>
        <time>2021-08-30T09:50:15Z</time>
      </trkpt>
      <trkpt lat="44.40844" lon="6.75762">
        <ele>1472</ele>
        <time>2021-08-30T09:50:19Z</time>
      </trkpt>
      <trkpt lat="44.40832" lon="6.75768">
        <ele>1474</ele>
        <time>2021-08-30T09:50:23Z</time>
      </trkpt>
      <trkpt lat="44.4082" lon="6.75775">
        <ele>1474.8</ele>
        <time>2021-08-30T09:50:27Z</time>
      </trkpt>
      <trkpt lat="44.40809" lon="6.75783">
        <ele>1475.7</ele>
        <time>2021-08-30T09:50:31Z</time>
      </trkpt>
      <trkpt lat="44.40798" lon="6.75792">
        <ele>1476.6</ele>
        <time>2021-08-30T09:50:35Z</time>
      </trkpt>
      <trkpt lat="44.40787" lon="6.75803">
        <ele>1477.6</ele>
        <time>2021-08-30T09:50:39Z</time>
      </trkpt>
      <trkpt lat="44.40776" lon="6.75812">
        <ele>1478.2</ele>
        <time>2021-08-30T09:50:43Z</time>
      </trkpt>
      <trkpt lat="44.40766" lon="6.75823">
        <ele>1478.9</ele>
        <time>2021-08-30T09:50:47Z</time>
      </trkpt>
      <trkpt lat="44.40755" lon="6.75834">
        <ele>1479.5</ele>
        <time>2021-08-30T09:50:51Z</time>
      </trkpt>
      <trkpt lat="44.40743" lon="6.75844">
        <ele>1480.3</ele>
        <time>2021-08-30T09:50:55Z</time>
      </trkpt>
      <trkpt lat="44.40732" lon="6.75853">
        <ele>1481.1</ele>
        <time>2021-08-30T09:50:59Z</time>
      </trkpt>
      <trkpt lat="44.40721" lon="6.75858">
        <ele>1481.2</ele>
        <time>2021-08-30T09:51:03Z</time>
      </trkpt>
      <trkpt lat="44.40707" lon="6.75861">
        <ele>1480.9</ele>
        <time>2021-08-30T09:51:07Z</time>
      </trkpt>
      <trkpt lat="44.40691" lon="6.75863">
        <ele>1480.3</ele>
        <time>2021-08-30T09:51:11Z</time>
      </trkpt>
      <trkpt lat="44.40674" lon="6.75863">
        <ele>1479.3</ele>
        <time>2021-08-30T09:51:15Z</time>
      </trkpt>
      <trkpt lat="44.40658" lon="6.75863">
        <ele>1478.8</ele>
        <time>2021-08-30T09:51:19Z</time>
      </trkpt>
      <trkpt lat="44.40645" lon="6.75864">
        <ele>1478.9</ele>
        <time>2021-08-30T09:51:23Z</time>
      </trkpt>
      <trkpt lat="44.40632" lon="6.75865">
        <ele>1478.9</ele>
        <time>2021-08-30T09:51:27Z</time>
      </trkpt>
      <trkpt lat="44.4062" lon="6.75865">
        <ele>1478.8</ele>
        <time>2021-08-30T09:51:31Z</time>
      </trkpt>
      <trkpt lat="44.40607" lon="6.75865">
        <ele>1478.6</ele>
        <time>2021-08-30T09:51:35Z</time>
      </trkpt>
      <trkpt lat="44.40597" lon="6.75864">
        <ele>1478.4</ele>
        <time>2021-08-30T09:51:39Z</time>
      </trkpt>
      <trkpt lat="44.40588" lon="6.7586">
        <ele>1477.9</ele>
        <time>2021-08-30T09:51:43Z</time>
      </trkpt>
      <trkpt lat="44.40591" lon="6.75845">
        <ele>1476.3</ele>
        <time>2021-08-30T09:51:47Z</time>
      </trkpt>
      <trkpt lat="44.40601" lon="6.7582">
        <ele>1473.5</ele>
        <time>2021-08-30T09:51:51Z</time>
      </trkpt>
      <trkpt lat="44.40608" lon="6.75799">
        <ele>1470.9</ele>
        <time>2021-08-30T09:51:55Z</time>
      </trkpt>
      <trkpt lat="44.40615" lon="6.75782">
        <ele>1468.8</ele>
        <time>2021-08-30T09:51:59Z</time>
      </trkpt>
      <trkpt lat="44.40626" lon="6.75749">
        <ele>1464.3</ele>
        <time>2021-08-30T09:52:03Z</time>
      </trkpt>
      <trkpt lat="44.40641" lon="6.75713">
        <ele>1459.3</ele>
        <time>2021-08-30T09:52:07Z</time>
      </trkpt>
      <trkpt lat="44.40648" lon="6.7567">
        <ele>1453.9</ele>
        <time>2021-08-30T09:52:11Z</time>
      </trkpt>
      <trkpt lat="44.40646" lon="6.75637">
        <ele>1452</ele>
        <time>2021-08-30T09:52:15Z</time>
      </trkpt>
      <trkpt lat="44.40659" lon="6.75614">
        <ele>1450.6</ele>
        <time>2021-08-30T09:52:19Z</time>
      </trkpt>
      <trkpt lat="44.40683" lon="6.75608">
        <ele>1449</ele>
        <time>2021-08-30T09:52:23Z</time>
      </trkpt>
      <trkpt lat="44.40704" lon="6.75593">
        <ele>1446</ele>
        <time>2021-08-30T09:52:27Z</time>
      </trkpt>
      <trkpt lat="44.40699" lon="6.75565">
        <ele>1443.3</ele>
        <time>2021-08-30T09:52:31Z</time>
      </trkpt>
      <trkpt lat="44.40702" lon="6.75541">
        <ele>1440.2</ele>
        <time>2021-08-30T09:52:35Z</time>
      </trkpt>
      <trkpt lat="44.40717" lon="6.75513">
        <ele>1435.8</ele>
        <time>2021-08-30T09:52:39Z</time>
      </trkpt>
      <trkpt lat="44.40726" lon="6.75477">
        <ele>1432.6</ele>
        <time>2021-08-30T09:52:43Z</time>
      </trkpt>
      <trkpt lat="44.4074" lon="6.75439">
        <ele>1430.6</ele>
        <time>2021-08-30T09:52:47Z</time>
      </trkpt>
      <trkpt lat="44.40765" lon="6.75416">
        <ele>1429.2</ele>
        <time>2021-08-30T09:52:51Z</time>
      </trkpt>
      <trkpt lat="44.40777" lon="6.75398">
        <ele>1426.9</ele>
        <time>2021-08-30T09:52:55Z</time>
      </trkpt>
      <trkpt lat="44.40788" lon="6.75389">
        <ele>1425.3</ele>
        <time>2021-08-30T09:52:59Z</time>
      </trkpt>
      <trkpt lat="44.40799" lon="6.75375">
        <ele>1422.9</ele>
        <time>2021-08-30T09:53:03Z</time>
      </trkpt>
      <trkpt lat="44.4081" lon="6.75354">
        <ele>1419.4</ele>
        <time>2021-08-30T09:53:07Z</time>
      </trkpt>
      <trkpt lat="44.40823" lon="6.75323">
        <ele>1414.4</ele>
        <time>2021-08-30T09:53:11Z</time>
      </trkpt>
      <trkpt lat="44.40846" lon="6.75301">
        <ele>1410.4</ele>
        <time>2021-08-30T09:53:15Z</time>
      </trkpt>
      <trkpt lat="44.40862" lon="6.75274">
        <ele>1405.5</ele>
        <time>2021-08-30T09:53:19Z</time>
      </trkpt>
      <trkpt lat="44.40876" lon="6.75246">
        <ele>1399.5</ele>
        <time>2021-08-30T09:53:23Z</time>
      </trkpt>
      <trkpt lat="44.40892" lon="6.75218">
        <ele>1393.7</ele>
        <time>2021-08-30T09:53:27Z</time>
      </trkpt>
      <trkpt lat="44.40903" lon="6.75186">
        <ele>1387.3</ele>
        <time>2021-08-30T09:53:31Z</time>
      </trkpt>
      <trkpt lat="44.40903" lon="6.75138">
        <ele>1384</ele>
        <time>2021-08-30T09:53:35Z</time>
      </trkpt>
      <trkpt lat="44.40897" lon="6.75095">
        <ele>1384.3</ele>
        <time>2021-08-30T09:53:39Z</time>
      </trkpt>
      <trkpt lat="44.40904" lon="6.75046">
        <ele>1379</ele>
        <time>2021-08-30T09:53:43Z</time>
      </trkpt>
      <trkpt lat="44.40912" lon="6.75011">
        <ele>1374.7</ele>
        <time>2021-08-30T09:53:47Z</time>
      </trkpt>
      <trkpt lat="44.40924" lon="6.74986">
        <ele>1372.4</ele>
        <time>2021-08-30T09:53:51Z</time>
      </trkpt>
      <trkpt lat="44.4094" lon="6.74956">
        <ele>1371.4</ele>
        <time>2021-08-30T09:53:55Z</time>
      </trkpt>
      <trkpt lat="44.40951" lon="6.74937">
        <ele>1371</ele>
        <time>2021-08-30T09:53:59Z</time>
      </trkpt>
      <trkpt lat="44.4096" lon="6.74938">
        <ele>1371.5</ele>
        <time>2021-08-30T09:54:03Z</time>
      </trkpt>
      <trkpt lat="44.40971" lon="6.7494">
        <ele>1372.1</ele>
        <time>2021-08-30T09:54:07Z</time>
      </trkpt>
      <trkpt lat="44.40981" lon="6.74943">
        <ele>1372.7</ele>
        <time>2021-08-30T09:54:11Z</time>
      </trkpt>
      <trkpt lat="44.40988" lon="6.74938">
        <ele>1372.9</ele>
        <time>2021-08-30T09:54:15Z</time>
      </trkpt>
      <trkpt lat="44.40994" lon="6.74936">
        <ele>1373.2</ele>
        <time>2021-08-30T09:54:19Z</time>
      </trkpt>
      <trkpt lat="44.40993" lon="6.74924">
        <ele>1372.8</ele>
        <time>2021-08-30T09:54:23Z</time>
      </trkpt>
      <trkpt lat="44.40998" lon="6.74899">
        <ele>1370.4</ele>
        <time>2021-08-30T09:54:27Z</time>
      </trkpt>
      <trkpt lat="44.41009" lon="6.74868">
        <ele>1366.5</ele>
        <time>2021-08-30T09:54:31Z</time>
      </trkpt>
      <trkpt lat="44.41025" lon="6.74835">
        <ele>1363.3</ele>
        <time>2021-08-30T09:54:35Z</time>
      </trkpt>
      <trkpt lat="44.41044" lon="6.74802">
        <ele>1359.5</ele>
        <time>2021-08-30T09:54:39Z</time>
      </trkpt>
      <trkpt lat="44.41056" lon="6.74782">
        <ele>1357.3</ele>
        <time>2021-08-30T09:54:43Z</time>
      </trkpt>
      <trkpt lat="44.41043" lon="6.74771">
        <ele>1354.2</ele>
        <time>2021-08-30T09:54:47Z</time>
      </trkpt>
      <trkpt lat="44.41021" lon="6.74778">
        <ele>1353.1</ele>
        <time>2021-08-30T09:54:51Z</time>
      </trkpt>
      <trkpt lat="44.40996" lon="6.74786">
        <ele>1352.4</ele>
        <time>2021-08-30T09:54:55Z</time>
      </trkpt>
      <trkpt lat="44.40984" lon="6.74777">
        <ele>1350.6</ele>
        <time>2021-08-30T09:54:59Z</time>
      </trkpt>
      <trkpt lat="44.40991" lon="6.74756">
        <ele>1346.9</ele>
        <time>2021-08-30T09:55:03Z</time>
      </trkpt>
      <trkpt lat="44.41003" lon="6.74722">
        <ele>1341.7</ele>
        <time>2021-08-30T09:55:07Z</time>
      </trkpt>
      <trkpt lat="44.41012" lon="6.74688">
        <ele>1337.4</ele>
        <time>2021-08-30T09:55:11Z</time>
      </trkpt>
      <trkpt lat="44.4102" lon="6.74654">
        <ele>1333.4</ele>
        <time>2021-08-30T09:55:15Z</time>
      </trkpt>
      <trkpt lat="44.4102" lon="6.74616">
        <ele>1327.5</ele>
        <time>2021-08-30T09:55:19Z</time>
      </trkpt>
      <trkpt lat="44.41021" lon="6.74578">
        <ele>1321.7</ele>
        <time>2021-08-30T09:55:23Z</time>
      </trkpt>
      <trkpt lat="44.41023" lon="6.74542">
        <ele>1316.2</ele>
        <time>2021-08-30T09:55:27Z</time>
      </trkpt>
      <trkpt lat="44.41024" lon="6.7451">
        <ele>1311.2</ele>
        <time>2021-08-30T09:55:31Z</time>
      </trkpt>
      <trkpt lat="44.41032" lon="6.74484">
        <ele>1309</ele>
        <time>2021-08-30T09:55:35Z</time>
      </trkpt>
      <trkpt lat="44.41037" lon="6.7446">
        <ele>1306.8</ele>
        <time>2021-08-30T09:55:39Z</time>
      </trkpt>
      <trkpt lat="44.41024" lon="6.74455">
        <ele>1303.4</ele>
        <time>2021-08-30T09:55:43Z</time>
      </trkpt>
      <trkpt lat="44.41015" lon="6.74476">
        <ele>1304.5</ele>
        <time>2021-08-30T09:55:47Z</time>
      </trkpt>
      <trkpt lat="44.41001" lon="6.74501">
        <ele>1305.4</ele>
        <time>2021-08-30T09:55:51Z</time>
      </trkpt>
      <trkpt lat="44.40991" lon="6.7452">
        <ele>1305</ele>
        <time>2021-08-30T09:55:55Z</time>
      </trkpt>
      <trkpt lat="44.40986" lon="6.74512">
        <ele>1301.8</ele>
        <time>2021-08-30T09:55:59Z</time>
      </trkpt>
      <trkpt lat="44.40994" lon="6.74487">
        <ele>1300.9</ele>
        <time>2021-08-30T09:56:03Z</time>
      </trkpt>
      <trkpt lat="44.41003" lon="6.74449">
        <ele>1298.3</ele>
        <time>2021-08-30T09:56:07Z</time>
      </trkpt>
      <trkpt lat="44.41009" lon="6.74407">
        <ele>1293.5</ele>
        <time>2021-08-30T09:56:11Z</time>
      </trkpt>
      <trkpt lat="44.41014" lon="6.74361">
        <ele>1288</ele>
        <time>2021-08-30T09:56:15Z</time>
      </trkpt>
      <trkpt lat="44.41023" lon="6.74315">
        <ele>1284.3</ele>
        <time>2021-08-30T09:56:19Z</time>
      </trkpt>
      <trkpt lat="44.41036" lon="6.74276">
        <ele>1283.4</ele>
        <time>2021-08-30T09:56:23Z</time>
      </trkpt>
      <trkpt lat="44.41048" lon="6.74238">
        <ele>1282</ele>
        <time>2021-08-30T09:56:27Z</time>
      </trkpt>
      <trkpt lat="44.41057" lon="6.74195">
        <ele>1277.5</ele>
        <time>2021-08-30T09:56:31Z</time>
      </trkpt>
      <trkpt lat="44.41071" lon="6.74147">
        <ele>1271.9</ele>
        <time>2021-08-30T09:56:35Z</time>
      </trkpt>
      <trkpt lat="44.4109" lon="6.74116">
        <ele>1267.1</ele>
        <time>2021-08-30T09:56:39Z</time>
      </trkpt>
      <trkpt lat="44.41119" lon="6.74097">
        <ele>1263.6</ele>
        <time>2021-08-30T09:56:43Z</time>
      </trkpt>
      <trkpt lat="44.41151" lon="6.74087">
        <ele>1262.4</ele>
        <time>2021-08-30T09:56:47Z</time>
      </trkpt>
      <trkpt lat="44.41186" lon="6.74093">
        <ele>1261.5</ele>
        <time>2021-08-30T09:56:51Z</time>
      </trkpt>
      <trkpt lat="44.41221" lon="6.74102">
        <ele>1257.6</ele>
        <time>2021-08-30T09:56:55Z</time>
      </trkpt>
      <trkpt lat="44.41257" lon="6.74114">
        <ele>1254.3</ele>
        <time>2021-08-30T09:56:59Z</time>
      </trkpt>
      <trkpt lat="44.41294" lon="6.74131">
        <ele>1251.3</ele>
        <time>2021-08-30T09:57:03Z</time>
      </trkpt>
      <trkpt lat="44.41329" lon="6.74145">
        <ele>1246.1</ele>
        <time>2021-08-30T09:57:07Z</time>
      </trkpt>
      <trkpt lat="44.41353" lon="6.74171">
        <ele>1246</ele>
        <time>2021-08-30T09:57:11Z</time>
      </trkpt>
      <trkpt lat="44.4136" lon="6.7416">
        <ele>1244.1</ele>
        <time>2021-08-30T09:57:15Z</time>
      </trkpt>
      <trkpt lat="44.4136" lon="6.74127">
        <ele>1240.8</ele>
        <time>2021-08-30T09:57:19Z</time>
      </trkpt>
      <trkpt lat="44.41357" lon="6.74095">
        <ele>1237.7</ele>
        <time>2021-08-30T09:57:23Z</time>
      </trkpt>
      <trkpt lat="44.41355" lon="6.74065">
        <ele>1235.5</ele>
        <time>2021-08-30T09:57:27Z</time>
      </trkpt>
      <trkpt lat="44.41352" lon="6.74039">
        <ele>1234.1</ele>
        <time>2021-08-30T09:57:31Z</time>
      </trkpt>
      <trkpt lat="44.4135" lon="6.74011">
        <ele>1232.6</ele>
        <time>2021-08-30T09:57:35Z</time>
      </trkpt>
      <trkpt lat="44.41349" lon="6.7398">
        <ele>1231.6</ele>
        <time>2021-08-30T09:57:39Z</time>
      </trkpt>
      <trkpt lat="44.41346" lon="6.7395">
        <ele>1230.9</ele>
        <time>2021-08-30T09:57:43Z</time>
      </trkpt>
      <trkpt lat="44.41343" lon="6.7392">
        <ele>1230.2</ele>
        <time>2021-08-30T09:57:47Z</time>
      </trkpt>
      <trkpt lat="44.4134" lon="6.73891">
        <ele>1230.1</ele>
        <time>2021-08-30T09:57:51Z</time>
      </trkpt>
      <trkpt lat="44.41339" lon="6.73863">
        <ele>1230.1</ele>
        <time>2021-08-30T09:57:55Z</time>
      </trkpt>
      <trkpt lat="44.41336" lon="6.73833">
        <ele>1230</ele>
        <time>2021-08-30T09:57:59Z</time>
      </trkpt>
      <trkpt lat="44.41335" lon="6.73804">
        <ele>1229.3</ele>
        <time>2021-08-30T09:58:03Z</time>
      </trkpt>
      <trkpt lat="44.41331" lon="6.73776">
        <ele>1228.7</ele>
        <time>2021-08-30T09:58:07Z</time>
      </trkpt>
      <trkpt lat="44.41329" lon="6.73745">
        <ele>1228.1</ele>
        <time>2021-08-30T09:58:11Z</time>
      </trkpt>
      <trkpt lat="44.41329" lon="6.73716">
        <ele>1227.8</ele>
        <time>2021-08-30T09:58:15Z</time>
      </trkpt>
      <trkpt lat="44.41329" lon="6.73691">
        <ele>1227.5</ele>
        <time>2021-08-30T09:58:19Z</time>
      </trkpt>
      <trkpt lat="44.41331" lon="6.73664">
        <ele>1227</ele>
        <time>2021-08-30T09:58:23Z</time>
      </trkpt>
      <trkpt lat="44.41335" lon="6.73636">
        <ele>1225.9</ele>
        <time>2021-08-30T09:58:27Z</time>
      </trkpt>
      <trkpt lat="44.4134" lon="6.73605">
        <ele>1224.6</ele>
        <time>2021-08-30T09:58:31Z</time>
      </trkpt>
      <trkpt lat="44.41346" lon="6.73576">
        <ele>1223.4</ele>
        <time>2021-08-30T09:58:35Z</time>
      </trkpt>
      <trkpt lat="44.4135" lon="6.7355">
        <ele>1222.4</ele>
        <time>2021-08-30T09:58:39Z</time>
      </trkpt>
      <trkpt lat="44.41355" lon="6.73523">
        <ele>1221.3</ele>
        <time>2021-08-30T09:58:43Z</time>
      </trkpt>
      <trkpt lat="44.4136" lon="6.73496">
        <ele>1220.3</ele>
        <time>2021-08-30T09:58:47Z</time>
      </trkpt>
      <trkpt lat="44.41365" lon="6.73469">
        <ele>1219.5</ele>
        <time>2021-08-30T09:58:51Z</time>
      </trkpt>
      <trkpt lat="44.4137" lon="6.73443">
        <ele>1218.8</ele>
        <time>2021-08-30T09:58:55Z</time>
      </trkpt>
      <trkpt lat="44.41374" lon="6.73423">
        <ele>1218.2</ele>
        <time>2021-08-30T09:58:59Z</time>
      </trkpt>
      <trkpt lat="44.41377" lon="6.73408">
        <ele>1217.9</ele>
        <time>2021-08-30T09:59:03Z</time>
      </trkpt>
      <trkpt lat="44.41379" lon="6.73389">
        <ele>1217.8</ele>
        <time>2021-08-30T09:59:07Z</time>
      </trkpt>
      <trkpt lat="44.4137" lon="6.73371">
        <ele>1217.8</ele>
        <time>2021-08-30T09:59:11Z</time>
      </trkpt>
      <trkpt lat="44.4136" lon="6.73353">
        <ele>1217.8</ele>
        <time>2021-08-30T09:59:15Z</time>
      </trkpt>
      <trkpt lat="44.4135" lon="6.73331">
        <ele>1217.8</ele>
        <time>2021-08-30T09:59:19Z</time>
      </trkpt>
      <trkpt lat="44.41341" lon="6.73306">
        <ele>1217.9</ele>
        <time>2021-08-30T09:59:23Z</time>
      </trkpt>
      <trkpt lat="44.41331" lon="6.73279">
        <ele>1218</ele>
        <time>2021-08-30T09:59:27Z</time>
      </trkpt>
      <trkpt lat="44.41317" lon="6.73253">
        <ele>1218</ele>
        <time>2021-08-30T09:59:31Z</time>
      </trkpt>
      <trkpt lat="44.413" lon="6.73234">
        <ele>1217.7</ele>
        <time>2021-08-30T09:59:35Z</time>
      </trkpt>
      <trkpt lat="44.41289" lon="6.73215">
        <ele>1217.4</ele>
        <time>2021-08-30T09:59:39Z</time>
      </trkpt>
      <trkpt lat="44.41293" lon="6.73189">
        <ele>1216.9</ele>
        <time>2021-08-30T09:59:43Z</time>
      </trkpt>
      <trkpt lat="44.41299" lon="6.7316">
        <ele>1216.4</ele>
        <time>2021-08-30T09:59:47Z</time>
      </trkpt>
      <trkpt lat="44.41304" lon="6.7313">
        <ele>1215.6</ele>
        <time>2021-08-30T09:59:51Z</time>
      </trkpt>
      <trkpt lat="44.4131" lon="6.73099">
        <ele>1214.9</ele>
        <time>2021-08-30T09:59:55Z</time>
      </trkpt>
      <trkpt lat="44.41315" lon="6.73067">
        <ele>1214.1</ele>
        <time>2021-08-30T09:59:59Z</time>
      </trkpt>
      <trkpt lat="44.4132" lon="6.73036">
        <ele>1213.2</ele>
        <time>2021-08-30T10:00:03Z</time>
      </trkpt>
      <trkpt lat="44.41324" lon="6.73005">
        <ele>1212.2</ele>
        <time>2021-08-30T10:00:07Z</time>
      </trkpt>
      <trkpt lat="44.41328" lon="6.72977">
        <ele>1212.8</ele>
        <time>2021-08-30T10:00:11Z</time>
      </trkpt>
      <trkpt lat="44.41333" lon="6.72951">
        <ele>1213.8</ele>
        <time>2021-08-30T10:00:15Z</time>
      </trkpt>
      <trkpt lat="44.41339" lon="6.72924">
        <ele>1214.8</ele>
        <time>2021-08-30T10:00:19Z</time>
      </trkpt>
      <trkpt lat="44.41349" lon="6.72903">
        <ele>1215.6</ele>
        <time>2021-08-30T10:00:23Z</time>
      </trkpt>
      <trkpt lat="44.41366" lon="6.72893">
        <ele>1215.9</ele>
        <time>2021-08-30T10:00:27Z</time>
      </trkpt>
      <trkpt lat="44.41385" lon="6.72884">
        <ele>1216.1</ele>
        <time>2021-08-30T10:00:31Z</time>
      </trkpt>
      <trkpt lat="44.41404" lon="6.72875">
        <ele>1216.2</ele>
        <time>2021-08-30T10:00:35Z</time>
      </trkpt>
      <trkpt lat="44.41424" lon="6.72867">
        <ele>1216.1</ele>
        <time>2021-08-30T10:00:39Z</time>
      </trkpt>
      <trkpt lat="44.41443" lon="6.72858">
        <ele>1216.2</ele>
        <time>2021-08-30T10:00:43Z</time>
      </trkpt>
      <trkpt lat="44.41462" lon="6.72849">
        <ele>1216.2</ele>
        <time>2021-08-30T10:00:47Z</time>
      </trkpt>
      <trkpt lat="44.41482" lon="6.7284">
        <ele>1216.1</ele>
        <time>2021-08-30T10:00:51Z</time>
      </trkpt>
      <trkpt lat="44.41503" lon="6.72833">
        <ele>1216</ele>
        <time>2021-08-30T10:00:55Z</time>
      </trkpt>
      <trkpt lat="44.41526" lon="6.7283">
        <ele>1216.2</ele>
        <time>2021-08-30T10:00:59Z</time>
      </trkpt>
      <trkpt lat="44.41549" lon="6.72831">
        <ele>1216.1</ele>
        <time>2021-08-30T10:01:03Z</time>
      </trkpt>
      <trkpt lat="44.41572" lon="6.72837">
        <ele>1215.9</ele>
        <time>2021-08-30T10:01:07Z</time>
      </trkpt>
      <trkpt lat="44.41596" lon="6.72842">
        <ele>1215.9</ele>
        <time>2021-08-30T10:01:11Z</time>
      </trkpt>
      <trkpt lat="44.4162" lon="6.72847">
        <ele>1216</ele>
        <time>2021-08-30T10:01:15Z</time>
      </trkpt>
      <trkpt lat="44.41642" lon="6.72858">
        <ele>1215.9</ele>
        <time>2021-08-30T10:01:19Z</time>
      </trkpt>
      <trkpt lat="44.41663" lon="6.72875">
        <ele>1215.5</ele>
        <time>2021-08-30T10:01:23Z</time>
      </trkpt>
      <trkpt lat="44.41683" lon="6.72897">
        <ele>1215</ele>
        <time>2021-08-30T10:01:27Z</time>
      </trkpt>
      <trkpt lat="44.417" lon="6.72923">
        <ele>1213.9</ele>
        <time>2021-08-30T10:01:31Z</time>
      </trkpt>
      <trkpt lat="44.41717" lon="6.72949">
        <ele>1213.4</ele>
        <time>2021-08-30T10:01:35Z</time>
      </trkpt>
      <trkpt lat="44.41735" lon="6.72974">
        <ele>1212.7</ele>
        <time>2021-08-30T10:01:39Z</time>
      </trkpt>
      <trkpt lat="44.41752" lon="6.72999">
        <ele>1212.2</ele>
        <time>2021-08-30T10:01:43Z</time>
      </trkpt>
      <trkpt lat="44.41769" lon="6.73023">
        <ele>1213.6</ele>
        <time>2021-08-30T10:01:47Z</time>
      </trkpt>
      <trkpt lat="44.41785" lon="6.73046">
        <ele>1214.6</ele>
        <time>2021-08-30T10:01:51Z</time>
      </trkpt>
      <trkpt lat="44.41801" lon="6.7307">
        <ele>1215.1</ele>
        <time>2021-08-30T10:01:55Z</time>
      </trkpt>
      <trkpt lat="44.41816" lon="6.73095">
        <ele>1215</ele>
        <time>2021-08-30T10:01:59Z</time>
      </trkpt>
      <trkpt lat="44.41829" lon="6.73123">
        <ele>1214.1</ele>
        <time>2021-08-30T10:02:03Z</time>
      </trkpt>
      <trkpt lat="44.41841" lon="6.73145">
        <ele>1213.4</ele>
        <time>2021-08-30T10:02:07Z</time>
      </trkpt>
      <trkpt lat="44.41849" lon="6.73148">
        <ele>1213.6</ele>
        <time>2021-08-30T10:02:15Z</time>
      </trkpt>
    </trkseg>
  </trk>
</gpx>